<?xml version="1.0" encoding="utf-8"?>
<gpx xmlns:xsd="http://www.w3.org/2001/XMLSchema" xmlns:xsi="http://www.w3.org/2001/XMLSchema-instance" creator="eT4 META" version="1.1" xsi:schemaLocation="http://www.topografix.com/GPX/1/1 http://www.topografix.com/GPX/1/1/gpx.xsd" xmlns="http://www.topografix.com/GPX/1/1">
  <trk>
    <name>Auf "einen Kaffee mit Radegundis": Mit dem Rennrad durch die "Stauden"</name>
    <trkseg>
      <trkpt lat="48.238824" lon="10.363387">
        <ele>516.96</ele>
        <time>2026-09-01T00:00:00.0000000+00:00</time>
      </trkpt>
      <trkpt lat="48.238145" lon="10.363823">
        <ele>516.82</ele>
        <time>2026-09-01T00:01:16.9150000+00:00</time>
      </trkpt>
      <trkpt lat="48.237453" lon="10.364398">
        <ele>516.88</ele>
        <time>2026-09-01T00:02:39.2900000+00:00</time>
      </trkpt>
      <trkpt lat="48.237152" lon="10.364568">
        <ele>517.08</ele>
        <time>2026-09-01T00:03:12.7840000+00:00</time>
      </trkpt>
      <trkpt lat="48.234995" lon="10.365462">
        <ele>515.25</ele>
        <time>2026-09-01T00:07:05.8430000+00:00</time>
      </trkpt>
      <trkpt lat="48.234268" lon="10.365943">
        <ele>512.57</ele>
        <time>2026-09-01T00:08:28.5890000+00:00</time>
      </trkpt>
      <trkpt lat="48.23355" lon="10.366364">
        <ele>513.02</ele>
        <time>2026-09-01T00:09:48.8710000+00:00</time>
      </trkpt>
      <trkpt lat="48.233008" lon="10.366731">
        <ele>514.05</ele>
        <time>2026-09-01T00:10:50.7980000+00:00</time>
      </trkpt>
      <trkpt lat="48.231942" lon="10.367611">
        <ele>516.16</ele>
        <time>2026-09-01T00:12:57.5020000+00:00</time>
      </trkpt>
      <trkpt lat="48.230708" lon="10.369103">
        <ele>517.28</ele>
        <time>2026-09-01T00:15:42.5270000+00:00</time>
      </trkpt>
      <trkpt lat="48.22901" lon="10.370407">
        <ele>514.42</ele>
        <time>2026-09-01T00:19:01.1750000+00:00</time>
      </trkpt>
      <trkpt lat="48.228695" lon="10.370667">
        <ele>514.78</ele>
        <time>2026-09-01T00:19:38.6150000+00:00</time>
      </trkpt>
      <trkpt lat="48.227645" lon="10.371673">
        <ele>515.21</ele>
        <time>2026-09-01T00:21:48.3510000+00:00</time>
      </trkpt>
      <trkpt lat="48.226914" lon="10.372218">
        <ele>514.36</ele>
        <time>2026-09-01T00:23:13.3600000+00:00</time>
      </trkpt>
      <trkpt lat="48.226197" lon="10.37257">
        <ele>513.33</ele>
        <time>2026-09-01T00:24:31.9290000+00:00</time>
      </trkpt>
      <trkpt lat="48.224787" lon="10.373097">
        <ele>513.91</ele>
        <time>2026-09-01T00:27:03.2680000+00:00</time>
      </trkpt>
      <trkpt lat="48.224474" lon="10.373369">
        <ele>514.22</ele>
        <time>2026-09-01T00:27:40.9370000+00:00</time>
      </trkpt>
      <trkpt lat="48.224126" lon="10.373873">
        <ele>513.61</ele>
        <time>2026-09-01T00:28:31.3020000+00:00</time>
      </trkpt>
      <trkpt lat="48.223408" lon="10.373822">
        <ele>515.44</ele>
        <time>2026-09-01T00:29:46.1670000+00:00</time>
      </trkpt>
      <trkpt lat="48.222989" lon="10.374156">
        <ele>515.6</ele>
        <time>2026-09-01T00:30:35.5790000+00:00</time>
      </trkpt>
      <trkpt lat="48.222519" lon="10.37444">
        <ele>516.41</ele>
        <time>2026-09-01T00:31:28.3490000+00:00</time>
      </trkpt>
      <trkpt lat="48.221518" lon="10.374892">
        <ele>517.72</ele>
        <time>2026-09-01T00:33:17.2200000+00:00</time>
      </trkpt>
      <trkpt lat="48.221099" lon="10.374934">
        <ele>518.35</ele>
        <time>2026-09-01T00:34:00.9570000+00:00</time>
      </trkpt>
      <trkpt lat="48.220994" lon="10.375002">
        <ele>518.35</ele>
        <time>2026-09-01T00:34:12.8680000+00:00</time>
      </trkpt>
      <trkpt lat="48.220223" lon="10.375758">
        <ele>517.89</ele>
        <time>2026-09-01T00:35:48.7870000+00:00</time>
      </trkpt>
      <trkpt lat="48.220133" lon="10.375857">
        <ele>518.09</ele>
        <time>2026-09-01T00:36:00.4090000+00:00</time>
      </trkpt>
      <trkpt lat="48.219963" lon="10.375807">
        <ele>518.59</ele>
        <time>2026-09-01T00:36:18.4510000+00:00</time>
      </trkpt>
      <trkpt lat="48.219724" lon="10.375281">
        <ele>518.89</ele>
        <time>2026-09-01T00:37:02.6320000+00:00</time>
      </trkpt>
      <trkpt lat="48.219642" lon="10.375237">
        <ele>518.79</ele>
        <time>2026-09-01T00:37:11.7010000+00:00</time>
      </trkpt>
      <trkpt lat="48.219264" lon="10.375496">
        <ele>518.34</ele>
        <time>2026-09-01T00:37:54.9790000+00:00</time>
      </trkpt>
      <trkpt lat="48.218665" lon="10.375841">
        <ele>518.86</ele>
        <time>2026-09-01T00:39:01.8030000+00:00</time>
      </trkpt>
      <trkpt lat="48.216988" lon="10.376899">
        <ele>518.53</ele>
        <time>2026-09-01T00:42:11.2700000+00:00</time>
      </trkpt>
      <trkpt lat="48.215787" lon="10.377595">
        <ele>518.08</ele>
        <time>2026-09-01T00:44:25.3580000+00:00</time>
      </trkpt>
      <trkpt lat="48.213979" lon="10.378711">
        <ele>519.2</ele>
        <time>2026-09-01T00:47:48.9710000+00:00</time>
      </trkpt>
      <trkpt lat="48.211367" lon="10.380287">
        <ele>522.66</ele>
        <time>2026-09-01T00:52:42.1820000+00:00</time>
      </trkpt>
      <trkpt lat="48.209441" lon="10.381493">
        <ele>523.47</ele>
        <time>2026-09-01T00:56:19.5420000+00:00</time>
      </trkpt>
      <trkpt lat="48.208778" lon="10.38189">
        <ele>523.61</ele>
        <time>2026-09-01T00:57:33.8900000+00:00</time>
      </trkpt>
      <trkpt lat="48.207705" lon="10.382454">
        <ele>524.22</ele>
        <time>2026-09-01T00:59:32.3030000+00:00</time>
      </trkpt>
      <trkpt lat="48.20635" lon="10.382992">
        <ele>526</ele>
        <time>2026-09-01T01:01:58.2860000+00:00</time>
      </trkpt>
      <trkpt lat="48.204602" lon="10.383547">
        <ele>524.1</ele>
        <time>2026-09-01T01:05:04.3750000+00:00</time>
      </trkpt>
      <trkpt lat="48.203974" lon="10.383693">
        <ele>524.16</ele>
        <time>2026-09-01T01:06:10.5630000+00:00</time>
      </trkpt>
      <trkpt lat="48.203334" lon="10.383744">
        <ele>523.43</ele>
        <time>2026-09-01T01:07:17.3140000+00:00</time>
      </trkpt>
      <trkpt lat="48.202778" lon="10.38371">
        <ele>523.72</ele>
        <time>2026-09-01T01:08:15.2710000+00:00</time>
      </trkpt>
      <trkpt lat="48.202271" lon="10.383625">
        <ele>524.3</ele>
        <time>2026-09-01T01:09:08.4050000+00:00</time>
      </trkpt>
      <trkpt lat="48.201919" lon="10.384299">
        <ele>523.68</ele>
        <time>2026-09-01T01:10:07.8450000+00:00</time>
      </trkpt>
      <trkpt lat="48.201309" lon="10.384438">
        <ele>523.51</ele>
        <time>2026-09-01T01:11:12.1060000+00:00</time>
      </trkpt>
      <trkpt lat="48.200431" lon="10.384019">
        <ele>523.79</ele>
        <time>2026-09-01T01:12:48.0660000+00:00</time>
      </trkpt>
      <trkpt lat="48.200097" lon="10.383903">
        <ele>523.93</ele>
        <time>2026-09-01T01:13:23.7730000+00:00</time>
      </trkpt>
      <trkpt lat="48.199025" lon="10.383796">
        <ele>524.06</ele>
        <time>2026-09-01T01:15:15.6710000+00:00</time>
      </trkpt>
      <trkpt lat="48.198147" lon="10.383244">
        <ele>524.99</ele>
        <time>2026-09-01T01:16:54.8210000+00:00</time>
      </trkpt>
      <trkpt lat="48.197926" lon="10.38335">
        <ele>524.88</ele>
        <time>2026-09-01T01:17:18.9870000+00:00</time>
      </trkpt>
      <trkpt lat="48.197911" lon="10.38381">
        <ele>524.7</ele>
        <time>2026-09-01T01:17:50.9600000+00:00</time>
      </trkpt>
      <trkpt lat="48.197842" lon="10.383878">
        <ele>524.62</ele>
        <time>2026-09-01T01:17:59.5580000+00:00</time>
      </trkpt>
      <trkpt lat="48.196254" lon="10.383695">
        <ele>523.49</ele>
        <time>2026-09-01T01:20:45.4390000+00:00</time>
      </trkpt>
      <trkpt lat="48.195433" lon="10.383903">
        <ele>523.55</ele>
        <time>2026-09-01T01:22:12.1580000+00:00</time>
      </trkpt>
      <trkpt lat="48.194285" lon="10.383031">
        <ele>525.33</ele>
        <time>2026-09-01T01:24:26.1780000+00:00</time>
      </trkpt>
      <trkpt lat="48.193936" lon="10.382971">
        <ele>525.12</ele>
        <time>2026-09-01T01:25:02.7650000+00:00</time>
      </trkpt>
      <trkpt lat="48.193526" lon="10.38288">
        <ele>525.07</ele>
        <time>2026-09-01T01:25:45.9320000+00:00</time>
      </trkpt>
      <trkpt lat="48.191951" lon="10.382315">
        <ele>525.18</ele>
        <time>2026-09-01T01:28:34.5970000+00:00</time>
      </trkpt>
      <trkpt lat="48.191724" lon="10.381789">
        <ele>526.89</ele>
        <time>2026-09-01T01:29:18.1030000+00:00</time>
      </trkpt>
      <trkpt lat="48.189658" lon="10.380749">
        <ele>532.17</ele>
        <time>2026-09-01T01:33:05.0740000+00:00</time>
      </trkpt>
      <trkpt lat="48.189007" lon="10.380556">
        <ele>534.66</ele>
        <time>2026-09-01T01:34:14.1890000+00:00</time>
      </trkpt>
      <trkpt lat="48.187646" lon="10.380601">
        <ele>533.29</ele>
        <time>2026-09-01T01:36:35.9740000+00:00</time>
      </trkpt>
      <trkpt lat="48.186728" lon="10.38081">
        <ele>530.62</ele>
        <time>2026-09-01T01:38:12.6810000+00:00</time>
      </trkpt>
      <trkpt lat="48.185161" lon="10.381232">
        <ele>529.08</ele>
        <time>2026-09-01T01:40:58.4970000+00:00</time>
      </trkpt>
      <trkpt lat="48.184867" lon="10.381339">
        <ele>529.02</ele>
        <time>2026-09-01T01:41:30.0070000+00:00</time>
      </trkpt>
      <trkpt lat="48.184791" lon="10.381467">
        <ele>528.79</ele>
        <time>2026-09-01T01:41:41.9090000+00:00</time>
      </trkpt>
      <trkpt lat="48.184837" lon="10.382164">
        <ele>527.06</ele>
        <time>2026-09-01T01:42:30.5460000+00:00</time>
      </trkpt>
      <trkpt lat="48.184762" lon="10.382317">
        <ele>526.89</ele>
        <time>2026-09-01T01:42:43.7330000+00:00</time>
      </trkpt>
      <trkpt lat="48.183922" lon="10.382536">
        <ele>528.73</ele>
        <time>2026-09-01T01:44:12.5330000+00:00</time>
      </trkpt>
      <trkpt lat="48.182703" lon="10.382953">
        <ele>530.08</ele>
        <time>2026-09-01T01:46:22.7540000+00:00</time>
      </trkpt>
      <trkpt lat="48.181697" lon="10.383215">
        <ele>530.35</ele>
        <time>2026-09-01T01:48:09.0990000+00:00</time>
      </trkpt>
      <trkpt lat="48.180861" lon="10.384017">
        <ele>530.41</ele>
        <time>2026-09-01T01:49:52.4600000+00:00</time>
      </trkpt>
      <trkpt lat="48.179286" lon="10.38402">
        <ele>533.4</ele>
        <time>2026-09-01T01:52:36.4990000+00:00</time>
      </trkpt>
      <trkpt lat="48.17875" lon="10.384037">
        <ele>534.27</ele>
        <time>2026-09-01T01:53:32.3370000+00:00</time>
      </trkpt>
      <trkpt lat="48.178231" lon="10.384085">
        <ele>535.06</ele>
        <time>2026-09-01T01:54:26.4950000+00:00</time>
      </trkpt>
      <trkpt lat="48.177283" lon="10.3844">
        <ele>533.12</ele>
        <time>2026-09-01T01:56:07.6260000+00:00</time>
      </trkpt>
      <trkpt lat="48.176146" lon="10.384596">
        <ele>534.59</ele>
        <time>2026-09-01T01:58:06.8260000+00:00</time>
      </trkpt>
      <trkpt lat="48.175298" lon="10.384882">
        <ele>534.98</ele>
        <time>2026-09-01T01:59:37.3540000+00:00</time>
      </trkpt>
      <trkpt lat="48.17476" lon="10.38511">
        <ele>535.13</ele>
        <time>2026-09-01T02:00:35.5820000+00:00</time>
      </trkpt>
      <trkpt lat="48.173659" lon="10.385649">
        <ele>535.8</ele>
        <time>2026-09-01T02:02:36.2100000+00:00</time>
      </trkpt>
      <trkpt lat="48.172486" lon="10.386069">
        <ele>537.46</ele>
        <time>2026-09-01T02:04:41.8150000+00:00</time>
      </trkpt>
      <trkpt lat="48.170739" lon="10.386562">
        <ele>537.87</ele>
        <time>2026-09-01T02:07:46.9630000+00:00</time>
      </trkpt>
      <trkpt lat="48.168991" lon="10.387107">
        <ele>540.76</ele>
        <time>2026-09-01T02:10:52.9150000+00:00</time>
      </trkpt>
      <trkpt lat="48.167751" lon="10.387852">
        <ele>538.33</ele>
        <time>2026-09-01T02:13:12.0460000+00:00</time>
      </trkpt>
      <trkpt lat="48.165327" lon="10.38968">
        <ele>536.88</ele>
        <time>2026-09-01T02:17:54.6460000+00:00</time>
      </trkpt>
      <trkpt lat="48.164614" lon="10.390234">
        <ele>537.15</ele>
        <time>2026-09-01T02:19:18.2870000+00:00</time>
      </trkpt>
      <trkpt lat="48.163505" lon="10.390798">
        <ele>537.28</ele>
        <time>2026-09-01T02:21:20.2560000+00:00</time>
      </trkpt>
      <trkpt lat="48.163239" lon="10.391238">
        <ele>537.07</ele>
        <time>2026-09-01T02:22:01.5100000+00:00</time>
      </trkpt>
      <trkpt lat="48.162273" lon="10.391552">
        <ele>537.91</ele>
        <time>2026-09-01T02:23:44.4580000+00:00</time>
      </trkpt>
      <trkpt lat="48.161965" lon="10.391741">
        <ele>538.02</ele>
        <time>2026-09-01T02:24:19.1200000+00:00</time>
      </trkpt>
      <trkpt lat="48.162004" lon="10.39287">
        <ele>537</ele>
        <time>2026-09-01T02:25:37.6600000+00:00</time>
      </trkpt>
      <trkpt lat="48.16184" lon="10.392979">
        <ele>537</ele>
        <time>2026-09-01T02:25:56.3440000+00:00</time>
      </trkpt>
      <trkpt lat="48.161759" lon="10.393216">
        <ele>537.5</ele>
        <time>2026-09-01T02:26:14.8440000+00:00</time>
      </trkpt>
      <trkpt lat="48.161923" lon="10.394567">
        <ele>539.87</ele>
        <time>2026-09-01T02:27:50.2430000+00:00</time>
      </trkpt>
      <trkpt lat="48.161882" lon="10.395662">
        <ele>542.42</ele>
        <time>2026-09-01T02:29:06.4350000+00:00</time>
      </trkpt>
      <trkpt lat="48.161957" lon="10.396802">
        <ele>542.22</ele>
        <time>2026-09-01T02:30:26.0180000+00:00</time>
      </trkpt>
      <trkpt lat="48.162079" lon="10.397691">
        <ele>541.78</ele>
        <time>2026-09-01T02:31:29.0720000+00:00</time>
      </trkpt>
      <trkpt lat="48.162792" lon="10.400815">
        <ele>545.88</ele>
        <time>2026-09-01T02:35:18.4550000+00:00</time>
      </trkpt>
      <trkpt lat="48.162999" lon="10.401781">
        <ele>546.24</ele>
        <time>2026-09-01T02:36:28.9420000+00:00</time>
      </trkpt>
      <trkpt lat="48.163494" lon="10.40359">
        <ele>550.24</ele>
        <time>2026-09-01T02:38:44.7780000+00:00</time>
      </trkpt>
      <trkpt lat="48.163923" lon="10.405664">
        <ele>561.23</ele>
        <time>2026-09-01T02:41:15.6270000+00:00</time>
      </trkpt>
      <trkpt lat="48.164645" lon="10.40793">
        <ele>567.22</ele>
        <time>2026-09-01T02:44:10.0830000+00:00</time>
      </trkpt>
      <trkpt lat="48.165096" lon="10.408685">
        <ele>568.02</ele>
        <time>2026-09-01T02:45:20.4910000+00:00</time>
      </trkpt>
      <trkpt lat="48.165274" lon="10.409162">
        <ele>568.54</ele>
        <time>2026-09-01T02:45:58.4610000+00:00</time>
      </trkpt>
      <trkpt lat="48.165421" lon="10.409656">
        <ele>568.97</ele>
        <time>2026-09-01T02:46:36.0380000+00:00</time>
      </trkpt>
      <trkpt lat="48.167368" lon="10.417586">
        <ele>549.53</ele>
        <time>2026-09-01T02:56:23.0440000+00:00</time>
      </trkpt>
      <trkpt lat="48.167452" lon="10.418382">
        <ele>550.66</ele>
        <time>2026-09-01T02:57:19.0260000+00:00</time>
      </trkpt>
      <trkpt lat="48.167589" lon="10.421475">
        <ele>545.78</ele>
        <time>2026-09-01T03:00:54.3540000+00:00</time>
      </trkpt>
      <trkpt lat="48.1674" lon="10.42277">
        <ele>539.74</ele>
        <time>2026-09-01T03:02:26.4390000+00:00</time>
      </trkpt>
      <trkpt lat="48.167288" lon="10.426163">
        <ele>538.84</ele>
        <time>2026-09-01T03:06:22.4220000+00:00</time>
      </trkpt>
      <trkpt lat="48.167683" lon="10.428935">
        <ele>537.33</ele>
        <time>2026-09-01T03:09:39.3250000+00:00</time>
      </trkpt>
      <trkpt lat="48.167841" lon="10.429561">
        <ele>537.06</ele>
        <time>2026-09-01T03:10:25.8190000+00:00</time>
      </trkpt>
      <trkpt lat="48.168241" lon="10.430767">
        <ele>536.69</ele>
        <time>2026-09-01T03:11:59.3800000+00:00</time>
      </trkpt>
      <trkpt lat="48.168462" lon="10.431643">
        <ele>536.37</ele>
        <time>2026-09-01T03:13:04.4380000+00:00</time>
      </trkpt>
      <trkpt lat="48.16856" lon="10.431786">
        <ele>536.56</ele>
        <time>2026-09-01T03:13:18.6800000+00:00</time>
      </trkpt>
      <trkpt lat="48.169376" lon="10.43169">
        <ele>537.81</ele>
        <time>2026-09-01T03:14:43.9300000+00:00</time>
      </trkpt>
      <trkpt lat="48.170554" lon="10.431402">
        <ele>537.05</ele>
        <time>2026-09-01T03:16:48.2410000+00:00</time>
      </trkpt>
      <trkpt lat="48.170968" lon="10.431282">
        <ele>536.3</ele>
        <time>2026-09-01T03:17:32.1580000+00:00</time>
      </trkpt>
      <trkpt lat="48.17139" lon="10.431135">
        <ele>535.11</ele>
        <time>2026-09-01T03:18:17.2810000+00:00</time>
      </trkpt>
      <trkpt lat="48.172605" lon="10.430609">
        <ele>533.29</ele>
        <time>2026-09-01T03:20:28.9940000+00:00</time>
      </trkpt>
      <trkpt lat="48.173088" lon="10.430325">
        <ele>532.58</ele>
        <time>2026-09-01T03:21:23.0290000+00:00</time>
      </trkpt>
      <trkpt lat="48.173485" lon="10.430054">
        <ele>532.65</ele>
        <time>2026-09-01T03:22:08.4600000+00:00</time>
      </trkpt>
      <trkpt lat="48.173991" lon="10.429679">
        <ele>532.07</ele>
        <time>2026-09-01T03:23:07.2460000+00:00</time>
      </trkpt>
      <trkpt lat="48.174703" lon="10.429038">
        <ele>533.68</ele>
        <time>2026-09-01T03:24:33.7400000+00:00</time>
      </trkpt>
      <trkpt lat="48.175305" lon="10.428311">
        <ele>533.47</ele>
        <time>2026-09-01T03:25:54.2440000+00:00</time>
      </trkpt>
      <trkpt lat="48.176457" lon="10.426694">
        <ele>533.58</ele>
        <time>2026-09-01T03:28:38.5870000+00:00</time>
      </trkpt>
      <trkpt lat="48.177629" lon="10.424802">
        <ele>533.77</ele>
        <time>2026-09-01T03:31:37.9380000+00:00</time>
      </trkpt>
      <trkpt lat="48.177964" lon="10.42434">
        <ele>534.44</ele>
        <time>2026-09-01T03:32:25.3400000+00:00</time>
      </trkpt>
      <trkpt lat="48.17891" lon="10.423339">
        <ele>535.25</ele>
        <time>2026-09-01T03:34:25.9240000+00:00</time>
      </trkpt>
      <trkpt lat="48.17965" lon="10.42269">
        <ele>535.86</ele>
        <time>2026-09-01T03:35:55.2090000+00:00</time>
      </trkpt>
      <trkpt lat="48.179734" lon="10.422717">
        <ele>535.73</ele>
        <time>2026-09-01T03:36:04.1560000+00:00</time>
      </trkpt>
      <trkpt lat="48.179712" lon="10.426035">
        <ele>530</ele>
        <time>2026-09-01T03:39:54.5970000+00:00</time>
      </trkpt>
      <trkpt lat="48.179636" lon="10.428031">
        <ele>530.05</ele>
        <time>2026-09-01T03:42:13.4410000+00:00</time>
      </trkpt>
      <trkpt lat="48.179377" lon="10.436025">
        <ele>530.86</ele>
        <time>2026-09-01T03:51:29.2680000+00:00</time>
      </trkpt>
      <trkpt lat="48.179326" lon="10.43636">
        <ele>531.03</ele>
        <time>2026-09-01T03:51:53.1320000+00:00</time>
      </trkpt>
      <trkpt lat="48.179228" lon="10.436444">
        <ele>531.04</ele>
        <time>2026-09-01T03:52:04.8880000+00:00</time>
      </trkpt>
      <trkpt lat="48.178028" lon="10.43716">
        <ele>530.16</ele>
        <time>2026-09-01T03:54:19.3990000+00:00</time>
      </trkpt>
      <trkpt lat="48.17748" lon="10.437545">
        <ele>530.77</ele>
        <time>2026-09-01T03:55:22.4280000+00:00</time>
      </trkpt>
      <trkpt lat="48.176342" lon="10.438432">
        <ele>531.91</ele>
        <time>2026-09-01T03:57:36.0060000+00:00</time>
      </trkpt>
      <trkpt lat="48.174861" lon="10.439506">
        <ele>531.15</ele>
        <time>2026-09-01T04:00:27.3450000+00:00</time>
      </trkpt>
      <trkpt lat="48.170981" lon="10.442202">
        <ele>534.32</ele>
        <time>2026-09-01T04:07:52.7320000+00:00</time>
      </trkpt>
      <trkpt lat="48.170962" lon="10.442358">
        <ele>534.24</ele>
        <time>2026-09-01T04:08:03.7470000+00:00</time>
      </trkpt>
      <trkpt lat="48.171205" lon="10.44385">
        <ele>532.8</ele>
        <time>2026-09-01T04:09:50.4270000+00:00</time>
      </trkpt>
      <trkpt lat="48.171341" lon="10.444601">
        <ele>533.19</ele>
        <time>2026-09-01T04:10:44.4800000+00:00</time>
      </trkpt>
      <trkpt lat="48.171406" lon="10.445072">
        <ele>533.14</ele>
        <time>2026-09-01T04:11:17.8890000+00:00</time>
      </trkpt>
      <trkpt lat="48.171059" lon="10.44587">
        <ele>533.56</ele>
        <time>2026-09-01T04:12:24.0590000+00:00</time>
      </trkpt>
      <trkpt lat="48.170896" lon="10.446423">
        <ele>533.91</ele>
        <time>2026-09-01T04:13:06.0550000+00:00</time>
      </trkpt>
      <trkpt lat="48.170592" lon="10.447995">
        <ele>535.16</ele>
        <time>2026-09-01T04:14:59.7440000+00:00</time>
      </trkpt>
      <trkpt lat="48.170811" lon="10.448366">
        <ele>535.2</ele>
        <time>2026-09-01T04:15:34.1590000+00:00</time>
      </trkpt>
      <trkpt lat="48.170831" lon="10.448626">
        <ele>535.46</ele>
        <time>2026-09-01T04:15:52.3380000+00:00</time>
      </trkpt>
      <trkpt lat="48.170208" lon="10.452181">
        <ele>536.66</ele>
        <time>2026-09-01T04:20:07.6540000+00:00</time>
      </trkpt>
      <trkpt lat="48.170126" lon="10.453247">
        <ele>535.57</ele>
        <time>2026-09-01T04:21:22.1900000+00:00</time>
      </trkpt>
      <trkpt lat="48.169888" lon="10.454145">
        <ele>535.94</ele>
        <time>2026-09-01T04:22:29.3120000+00:00</time>
      </trkpt>
      <trkpt lat="48.169486" lon="10.45658">
        <ele>536.08</ele>
        <time>2026-09-01T04:25:23.5560000+00:00</time>
      </trkpt>
      <trkpt lat="48.169989" lon="10.458049">
        <ele>535.88</ele>
        <time>2026-09-01T04:27:18.2580000+00:00</time>
      </trkpt>
      <trkpt lat="48.170628" lon="10.460365">
        <ele>535.98</ele>
        <time>2026-09-01T04:30:12.3530000+00:00</time>
      </trkpt>
      <trkpt lat="48.170828" lon="10.46117">
        <ele>538</ele>
        <time>2026-09-01T04:31:12.0220000+00:00</time>
      </trkpt>
      <trkpt lat="48.171027" lon="10.46122">
        <ele>537.25</ele>
        <time>2026-09-01T04:31:33.0380000+00:00</time>
      </trkpt>
      <trkpt lat="48.171285" lon="10.461926">
        <ele>536.48</ele>
        <time>2026-09-01T04:32:28.9560000+00:00</time>
      </trkpt>
      <trkpt lat="48.171678" lon="10.462756">
        <ele>536.58</ele>
        <time>2026-09-01T04:33:39.6600000+00:00</time>
      </trkpt>
      <trkpt lat="48.172366" lon="10.464286">
        <ele>537.39</ele>
        <time>2026-09-01T04:35:47.8330000+00:00</time>
      </trkpt>
      <trkpt lat="48.172568" lon="10.464671">
        <ele>537.02</ele>
        <time>2026-09-01T04:36:21.8580000+00:00</time>
      </trkpt>
      <trkpt lat="48.17278" lon="10.464706">
        <ele>536.94</ele>
        <time>2026-09-01T04:36:44.0720000+00:00</time>
      </trkpt>
      <trkpt lat="48.17285" lon="10.465654">
        <ele>536.52</ele>
        <time>2026-09-01T04:37:50.3200000+00:00</time>
      </trkpt>
      <trkpt lat="48.173442" lon="10.468008">
        <ele>543.03</ele>
        <time>2026-09-01T04:40:45.0620000+00:00</time>
      </trkpt>
      <trkpt lat="48.173447" lon="10.468129">
        <ele>543.65</ele>
        <time>2026-09-01T04:40:53.4820000+00:00</time>
      </trkpt>
      <trkpt lat="48.17306" lon="10.468056">
        <ele>543.19</ele>
        <time>2026-09-01T04:41:34.1070000+00:00</time>
      </trkpt>
      <trkpt lat="48.172892" lon="10.46813">
        <ele>543.02</ele>
        <time>2026-09-01T04:41:52.3440000+00:00</time>
      </trkpt>
      <trkpt lat="48.172575" lon="10.468568">
        <ele>543.42</ele>
        <time>2026-09-01T04:42:37.2390000+00:00</time>
      </trkpt>
      <trkpt lat="48.172265" lon="10.469292">
        <ele>545.39</ele>
        <time>2026-09-01T04:43:36.9990000+00:00</time>
      </trkpt>
      <trkpt lat="48.172015" lon="10.469688">
        <ele>545.14</ele>
        <time>2026-09-01T04:44:14.8740000+00:00</time>
      </trkpt>
      <trkpt lat="48.171658" lon="10.470214">
        <ele>543.21</ele>
        <time>2026-09-01T04:45:07.0030000+00:00</time>
      </trkpt>
      <trkpt lat="48.171557" lon="10.470447">
        <ele>542.5</ele>
        <time>2026-09-01T04:45:26.3050000+00:00</time>
      </trkpt>
      <trkpt lat="48.171271" lon="10.471599">
        <ele>545.54</ele>
        <time>2026-09-01T04:46:51.6870000+00:00</time>
      </trkpt>
      <trkpt lat="48.172198" lon="10.471943">
        <ele>556.78</ele>
        <time>2026-09-01T04:48:31.1480000+00:00</time>
      </trkpt>
      <trkpt lat="48.172897" lon="10.471964">
        <ele>561.84</ele>
        <time>2026-09-01T04:49:43.9650000+00:00</time>
      </trkpt>
      <trkpt lat="48.173493" lon="10.472112">
        <ele>563.3</ele>
        <time>2026-09-01T04:50:46.8850000+00:00</time>
      </trkpt>
      <trkpt lat="48.173573" lon="10.472728">
        <ele>567.04</ele>
        <time>2026-09-01T04:51:30.4740000+00:00</time>
      </trkpt>
      <trkpt lat="48.172591" lon="10.474078">
        <ele>581.82</ele>
        <time>2026-09-01T04:53:49.2290000+00:00</time>
      </trkpt>
      <trkpt lat="48.172528" lon="10.475881">
        <ele>584.49</ele>
        <time>2026-09-01T04:55:54.6340000+00:00</time>
      </trkpt>
      <trkpt lat="48.172367" lon="10.477714">
        <ele>585.67</ele>
        <time>2026-09-01T04:58:03.0500000+00:00</time>
      </trkpt>
      <trkpt lat="48.17236" lon="10.479156">
        <ele>586.44</ele>
        <time>2026-09-01T04:59:43.2110000+00:00</time>
      </trkpt>
      <trkpt lat="48.172293" lon="10.480059">
        <ele>585.98</ele>
        <time>2026-09-01T05:00:46.3190000+00:00</time>
      </trkpt>
      <trkpt lat="48.172128" lon="10.481081">
        <ele>584.98</ele>
        <time>2026-09-01T05:01:59.3560000+00:00</time>
      </trkpt>
      <trkpt lat="48.171662" lon="10.482336">
        <ele>585.36</ele>
        <time>2026-09-01T05:03:39.1270000+00:00</time>
      </trkpt>
      <trkpt lat="48.170737" lon="10.484354">
        <ele>584.02</ele>
        <time>2026-09-01T05:06:29.2130000+00:00</time>
      </trkpt>
      <trkpt lat="48.170294" lon="10.485068">
        <ele>586.29</ele>
        <time>2026-09-01T05:07:36.9510000+00:00</time>
      </trkpt>
      <trkpt lat="48.169264" lon="10.486346">
        <ele>589.79</ele>
        <time>2026-09-01T05:09:56.1950000+00:00</time>
      </trkpt>
      <trkpt lat="48.168824" lon="10.487061">
        <ele>590.49</ele>
        <time>2026-09-01T05:11:03.7730000+00:00</time>
      </trkpt>
      <trkpt lat="48.168562" lon="10.487287">
        <ele>589.81</ele>
        <time>2026-09-01T05:11:35.2540000+00:00</time>
      </trkpt>
      <trkpt lat="48.167686" lon="10.487763">
        <ele>588.35</ele>
        <time>2026-09-01T05:13:12.2980000+00:00</time>
      </trkpt>
      <trkpt lat="48.167379" lon="10.488025">
        <ele>588.15</ele>
        <time>2026-09-01T05:13:49.0890000+00:00</time>
      </trkpt>
      <trkpt lat="48.166886" lon="10.488553">
        <ele>588.76</ele>
        <time>2026-09-01T05:14:52.1910000+00:00</time>
      </trkpt>
      <trkpt lat="48.166466" lon="10.489194">
        <ele>590.27</ele>
        <time>2026-09-01T05:15:54.6100000+00:00</time>
      </trkpt>
      <trkpt lat="48.165852" lon="10.490343">
        <ele>590.11</ele>
        <time>2026-09-01T05:17:36.8860000+00:00</time>
      </trkpt>
      <trkpt lat="48.165068" lon="10.491892">
        <ele>590.31</ele>
        <time>2026-09-01T05:19:51.9650000+00:00</time>
      </trkpt>
      <trkpt lat="48.166512" lon="10.497163">
        <ele>575.87</ele>
        <time>2026-09-01T05:26:27.8100000+00:00</time>
      </trkpt>
      <trkpt lat="48.166603" lon="10.498582">
        <ele>571.86</ele>
        <time>2026-09-01T05:28:06.8360000+00:00</time>
      </trkpt>
      <trkpt lat="48.166494" lon="10.499076">
        <ele>570.63</ele>
        <time>2026-09-01T05:28:42.9820000+00:00</time>
      </trkpt>
      <trkpt lat="48.165908" lon="10.500246">
        <ele>567.61</ele>
        <time>2026-09-01T05:30:24.6220000+00:00</time>
      </trkpt>
      <trkpt lat="48.165302" lon="10.502002">
        <ele>564.09</ele>
        <time>2026-09-01T05:32:41.9680000+00:00</time>
      </trkpt>
      <trkpt lat="48.16465" lon="10.503455">
        <ele>559.91</ele>
        <time>2026-09-01T05:34:43.6220000+00:00</time>
      </trkpt>
      <trkpt lat="48.164224" lon="10.504848">
        <ele>557.53</ele>
        <time>2026-09-01T05:36:30.0790000+00:00</time>
      </trkpt>
      <trkpt lat="48.16414" lon="10.505512">
        <ele>558.3</ele>
        <time>2026-09-01T05:37:17.0290000+00:00</time>
      </trkpt>
      <trkpt lat="48.164706" lon="10.508243">
        <ele>582.32</ele>
        <time>2026-09-01T05:40:35.6960000+00:00</time>
      </trkpt>
      <trkpt lat="48.166255" lon="10.514476">
        <ele>559.63</ele>
        <time>2026-09-01T05:48:17.7660000+00:00</time>
      </trkpt>
      <trkpt lat="48.166447" lon="10.516823">
        <ele>553.02</ele>
        <time>2026-09-01T05:51:02.0260000+00:00</time>
      </trkpt>
      <trkpt lat="48.166636" lon="10.517986">
        <ele>551.59</ele>
        <time>2026-09-01T05:52:25.1780000+00:00</time>
      </trkpt>
      <trkpt lat="48.166577" lon="10.518384">
        <ele>552.92</ele>
        <time>2026-09-01T05:52:53.5000000+00:00</time>
      </trkpt>
      <trkpt lat="48.166641" lon="10.518816">
        <ele>554.56</ele>
        <time>2026-09-01T05:53:24.2410000+00:00</time>
      </trkpt>
      <trkpt lat="48.166527" lon="10.518926">
        <ele>554</ele>
        <time>2026-09-01T05:53:38.3610000+00:00</time>
      </trkpt>
      <trkpt lat="48.166463" lon="10.519544">
        <ele>554.15</ele>
        <time>2026-09-01T05:54:21.8060000+00:00</time>
      </trkpt>
      <trkpt lat="48.166541" lon="10.522808">
        <ele>556.85</ele>
        <time>2026-09-01T05:58:08.6880000+00:00</time>
      </trkpt>
      <trkpt lat="48.166059" lon="10.527054">
        <ele>561.54</ele>
        <time>2026-09-01T06:03:07.8840000+00:00</time>
      </trkpt>
      <trkpt lat="48.16584" lon="10.527469">
        <ele>564.6</ele>
        <time>2026-09-01T06:03:44.6450000+00:00</time>
      </trkpt>
      <trkpt lat="48.165651" lon="10.527588">
        <ele>565.91</ele>
        <time>2026-09-01T06:04:05.9950000+00:00</time>
      </trkpt>
      <trkpt lat="48.164989" lon="10.527714">
        <ele>568.4</ele>
        <time>2026-09-01T06:05:15.4970000+00:00</time>
      </trkpt>
      <trkpt lat="48.164747" lon="10.52785">
        <ele>569.59</ele>
        <time>2026-09-01T06:05:42.4140000+00:00</time>
      </trkpt>
      <trkpt lat="48.164197" lon="10.528462">
        <ele>569.34</ele>
        <time>2026-09-01T06:06:53.7510000+00:00</time>
      </trkpt>
      <trkpt lat="48.163985" lon="10.528938">
        <ele>569.11</ele>
        <time>2026-09-01T06:07:33.5130000+00:00</time>
      </trkpt>
      <trkpt lat="48.162917" lon="10.532309">
        <ele>579.5</ele>
        <time>2026-09-01T06:11:52.7720000+00:00</time>
      </trkpt>
      <trkpt lat="48.162583" lon="10.532951">
        <ele>586.82</ele>
        <time>2026-09-01T06:12:49.3340000+00:00</time>
      </trkpt>
      <trkpt lat="48.162167" lon="10.533351">
        <ele>592.99</ele>
        <time>2026-09-01T06:13:40.8070000+00:00</time>
      </trkpt>
      <trkpt lat="48.161546" lon="10.533571">
        <ele>603.74</ele>
        <time>2026-09-01T06:14:47.2670000+00:00</time>
      </trkpt>
      <trkpt lat="48.160077" lon="10.533064">
        <ele>607.97</ele>
        <time>2026-09-01T06:17:24.2680000+00:00</time>
      </trkpt>
      <trkpt lat="48.159564" lon="10.533132">
        <ele>611.89</ele>
        <time>2026-09-01T06:18:17.9070000+00:00</time>
      </trkpt>
      <trkpt lat="48.159112" lon="10.533566">
        <ele>615.2</ele>
        <time>2026-09-01T06:19:13.8120000+00:00</time>
      </trkpt>
      <trkpt lat="48.158904" lon="10.533913">
        <ele>615.98</ele>
        <time>2026-09-01T06:19:46.2240000+00:00</time>
      </trkpt>
      <trkpt lat="48.15873" lon="10.534469">
        <ele>617.15</ele>
        <time>2026-09-01T06:20:28.8930000+00:00</time>
      </trkpt>
      <trkpt lat="48.158674" lon="10.535165">
        <ele>618.28</ele>
        <time>2026-09-01T06:21:17.5990000+00:00</time>
      </trkpt>
      <trkpt lat="48.158914" lon="10.537834">
        <ele>631.55</ele>
        <time>2026-09-01T06:24:24.7090000+00:00</time>
      </trkpt>
      <trkpt lat="48.159068" lon="10.538405">
        <ele>632.06</ele>
        <time>2026-09-01T06:25:07.5000000+00:00</time>
      </trkpt>
      <trkpt lat="48.159532" lon="10.539464">
        <ele>633.1</ele>
        <time>2026-09-01T06:26:35.5270000+00:00</time>
      </trkpt>
      <trkpt lat="48.159594" lon="10.540025">
        <ele>629.61</ele>
        <time>2026-09-01T06:27:15.0340000+00:00</time>
      </trkpt>
      <trkpt lat="48.159563" lon="10.540595">
        <ele>627.13</ele>
        <time>2026-09-01T06:27:54.7660000+00:00</time>
      </trkpt>
      <trkpt lat="48.159338" lon="10.541815">
        <ele>628.99</ele>
        <time>2026-09-01T06:29:22.7060000+00:00</time>
      </trkpt>
      <trkpt lat="48.159172" lon="10.542355">
        <ele>632.25</ele>
        <time>2026-09-01T06:30:04.0150000+00:00</time>
      </trkpt>
      <trkpt lat="48.158955" lon="10.54281">
        <ele>636.83</ele>
        <time>2026-09-01T06:30:42.8750000+00:00</time>
      </trkpt>
      <trkpt lat="48.158474" lon="10.543504">
        <ele>633.28</ele>
        <time>2026-09-01T06:31:52.4070000+00:00</time>
      </trkpt>
      <trkpt lat="48.15824" lon="10.543935">
        <ele>626.56</ele>
        <time>2026-09-01T06:32:31.0160000+00:00</time>
      </trkpt>
      <trkpt lat="48.158041" lon="10.544511">
        <ele>620.18</ele>
        <time>2026-09-01T06:33:16.0830000+00:00</time>
      </trkpt>
      <trkpt lat="48.157814" lon="10.545544">
        <ele>610.68</ele>
        <time>2026-09-01T06:34:31.6480000+00:00</time>
      </trkpt>
      <trkpt lat="48.157462" lon="10.547592">
        <ele>600.93</ele>
        <time>2026-09-01T06:36:58.5860000+00:00</time>
      </trkpt>
      <trkpt lat="48.157385" lon="10.54948">
        <ele>596.22</ele>
        <time>2026-09-01T06:39:10.0060000+00:00</time>
      </trkpt>
      <trkpt lat="48.157196" lon="10.550804">
        <ele>592.48</ele>
        <time>2026-09-01T06:40:44.0780000+00:00</time>
      </trkpt>
      <trkpt lat="48.156951" lon="10.553596">
        <ele>583.76</ele>
        <time>2026-09-01T06:43:59.7340000+00:00</time>
      </trkpt>
      <trkpt lat="48.15701" lon="10.554762">
        <ele>582.2</ele>
        <time>2026-09-01T06:45:20.9800000+00:00</time>
      </trkpt>
      <trkpt lat="48.1574" lon="10.55719">
        <ele>582.29</ele>
        <time>2026-09-01T06:48:14.4950000+00:00</time>
      </trkpt>
      <trkpt lat="48.157747" lon="10.558556">
        <ele>582.11</ele>
        <time>2026-09-01T06:49:56.0510000+00:00</time>
      </trkpt>
      <trkpt lat="48.157931" lon="10.559839">
        <ele>578.56</ele>
        <time>2026-09-01T06:51:27.2280000+00:00</time>
      </trkpt>
      <trkpt lat="48.158093" lon="10.560482">
        <ele>576.52</ele>
        <time>2026-09-01T06:52:14.9820000+00:00</time>
      </trkpt>
      <trkpt lat="48.158675" lon="10.562397">
        <ele>570.17</ele>
        <time>2026-09-01T06:54:41.1880000+00:00</time>
      </trkpt>
      <trkpt lat="48.158845" lon="10.563076">
        <ele>567.86</ele>
        <time>2026-09-01T06:55:31.5760000+00:00</time>
      </trkpt>
      <trkpt lat="48.15894" lon="10.564595">
        <ele>567.53</ele>
        <time>2026-09-01T06:57:17.5740000+00:00</time>
      </trkpt>
      <trkpt lat="48.158848" lon="10.56486">
        <ele>568.95</ele>
        <time>2026-09-01T06:57:38.3290000+00:00</time>
      </trkpt>
      <trkpt lat="48.158951" lon="10.564926">
        <ele>569.06</ele>
        <time>2026-09-01T06:57:49.9960000+00:00</time>
      </trkpt>
      <trkpt lat="48.15887" lon="10.564969">
        <ele>569.4</ele>
        <time>2026-09-01T06:57:58.9460000+00:00</time>
      </trkpt>
      <trkpt lat="48.158296" lon="10.565121">
        <ele>570.98</ele>
        <time>2026-09-01T06:58:59.6540000+00:00</time>
      </trkpt>
      <trkpt lat="48.156952" lon="10.566064">
        <ele>569.89</ele>
        <time>2026-09-01T07:01:34.2090000+00:00</time>
      </trkpt>
      <trkpt lat="48.15628" lon="10.566602">
        <ele>572.57</ele>
        <time>2026-09-01T07:02:53.5550000+00:00</time>
      </trkpt>
      <trkpt lat="48.153836" lon="10.568704">
        <ele>575.95</ele>
        <time>2026-09-01T07:07:47.0260000+00:00</time>
      </trkpt>
      <trkpt lat="48.152321" lon="10.570804">
        <ele>573.02</ele>
        <time>2026-09-01T07:11:21.9440000+00:00</time>
      </trkpt>
      <trkpt lat="48.151979" lon="10.571228">
        <ele>572.38</ele>
        <time>2026-09-01T07:12:08.1690000+00:00</time>
      </trkpt>
      <trkpt lat="48.151558" lon="10.5717">
        <ele>571.76</ele>
        <time>2026-09-01T07:13:02.9260000+00:00</time>
      </trkpt>
      <trkpt lat="48.15103" lon="10.572249">
        <ele>572.52</ele>
        <time>2026-09-01T07:14:09.8550000+00:00</time>
      </trkpt>
      <trkpt lat="48.149035" lon="10.573358">
        <ele>580.4</ele>
        <time>2026-09-01T07:17:51.4680000+00:00</time>
      </trkpt>
      <trkpt lat="48.148137" lon="10.573706">
        <ele>579.18</ele>
        <time>2026-09-01T07:19:28.0730000+00:00</time>
      </trkpt>
      <trkpt lat="48.146199" lon="10.574227">
        <ele>582.78</ele>
        <time>2026-09-01T07:22:53.1410000+00:00</time>
      </trkpt>
      <trkpt lat="48.145539" lon="10.574667">
        <ele>583.27</ele>
        <time>2026-09-01T07:24:08.3750000+00:00</time>
      </trkpt>
      <trkpt lat="48.145266" lon="10.575142">
        <ele>583.12</ele>
        <time>2026-09-01T07:24:51.9430000+00:00</time>
      </trkpt>
      <trkpt lat="48.14517" lon="10.57579">
        <ele>587.33</ele>
        <time>2026-09-01T07:25:38.0720000+00:00</time>
      </trkpt>
      <trkpt lat="48.14523" lon="10.576261">
        <ele>592.05</ele>
        <time>2026-09-01T07:26:11.3950000+00:00</time>
      </trkpt>
      <trkpt lat="48.145628" lon="10.577623">
        <ele>601.58</ele>
        <time>2026-09-01T07:27:54.7260000+00:00</time>
      </trkpt>
      <trkpt lat="48.145677" lon="10.578284">
        <ele>602.56</ele>
        <time>2026-09-01T07:28:40.9440000+00:00</time>
      </trkpt>
      <trkpt lat="48.145529" lon="10.579014">
        <ele>601.81</ele>
        <time>2026-09-01T07:29:33.9650000+00:00</time>
      </trkpt>
      <trkpt lat="48.14518" lon="10.579438">
        <ele>601.17</ele>
        <time>2026-09-01T07:30:20.7570000+00:00</time>
      </trkpt>
      <trkpt lat="48.144732" lon="10.579528">
        <ele>602.29</ele>
        <time>2026-09-01T07:31:07.8350000+00:00</time>
      </trkpt>
      <trkpt lat="48.143074" lon="10.579039">
        <ele>607.99</ele>
        <time>2026-09-01T07:34:03.8310000+00:00</time>
      </trkpt>
      <trkpt lat="48.142388" lon="10.579012">
        <ele>612.17</ele>
        <time>2026-09-01T07:35:15.3040000+00:00</time>
      </trkpt>
      <trkpt lat="48.142039" lon="10.579164">
        <ele>614.08</ele>
        <time>2026-09-01T07:35:53.1570000+00:00</time>
      </trkpt>
      <trkpt lat="48.141797" lon="10.579369">
        <ele>614.99</ele>
        <time>2026-09-01T07:36:22.1100000+00:00</time>
      </trkpt>
      <trkpt lat="48.141019" lon="10.580451">
        <ele>619.21</ele>
        <time>2026-09-01T07:38:12.6580000+00:00</time>
      </trkpt>
      <trkpt lat="48.140563" lon="10.580761">
        <ele>623.48</ele>
        <time>2026-09-01T07:39:04.8090000+00:00</time>
      </trkpt>
      <trkpt lat="48.140062" lon="10.580819">
        <ele>628.06</ele>
        <time>2026-09-01T07:39:57.1450000+00:00</time>
      </trkpt>
      <trkpt lat="48.139479" lon="10.58071">
        <ele>633.05</ele>
        <time>2026-09-01T07:40:58.3370000+00:00</time>
      </trkpt>
      <trkpt lat="48.139317" lon="10.580586">
        <ele>634.36</ele>
        <time>2026-09-01T07:41:17.2830000+00:00</time>
      </trkpt>
      <trkpt lat="48.138871" lon="10.580599">
        <ele>636.5</ele>
        <time>2026-09-01T07:42:03.7440000+00:00</time>
      </trkpt>
      <trkpt lat="48.137931" lon="10.580722">
        <ele>638.48</ele>
        <time>2026-09-01T07:43:42.0190000+00:00</time>
      </trkpt>
      <trkpt lat="48.137595" lon="10.580837">
        <ele>638.46</ele>
        <time>2026-09-01T07:44:17.9150000+00:00</time>
      </trkpt>
      <trkpt lat="48.137281" lon="10.58108">
        <ele>637.87</ele>
        <time>2026-09-01T07:44:54.7230000+00:00</time>
      </trkpt>
      <trkpt lat="48.137258" lon="10.581212">
        <ele>637.67</ele>
        <time>2026-09-01T07:45:04.2050000+00:00</time>
      </trkpt>
      <trkpt lat="48.137969" lon="10.582198">
        <ele>637.65</ele>
        <time>2026-09-01T07:46:45.1030000+00:00</time>
      </trkpt>
      <trkpt lat="48.13835" lon="10.583239">
        <ele>635.58</ele>
        <time>2026-09-01T07:48:07.6240000+00:00</time>
      </trkpt>
      <trkpt lat="48.138603" lon="10.583586">
        <ele>634.7</ele>
        <time>2026-09-01T07:48:43.3460000+00:00</time>
      </trkpt>
      <trkpt lat="48.140301" lon="10.58464">
        <ele>632.54</ele>
        <time>2026-09-01T07:51:54.7680000+00:00</time>
      </trkpt>
      <trkpt lat="48.140879" lon="10.585084">
        <ele>629.79</ele>
        <time>2026-09-01T07:53:02.4160000+00:00</time>
      </trkpt>
      <trkpt lat="48.141698" lon="10.585051">
        <ele>621.34</ele>
        <time>2026-09-01T07:54:27.7470000+00:00</time>
      </trkpt>
      <trkpt lat="48.142162" lon="10.584795">
        <ele>619.23</ele>
        <time>2026-09-01T07:55:19.2450000+00:00</time>
      </trkpt>
      <trkpt lat="48.142388" lon="10.584864">
        <ele>617.26</ele>
        <time>2026-09-01T07:55:43.2670000+00:00</time>
      </trkpt>
      <trkpt lat="48.143077" lon="10.585848">
        <ele>607.84</ele>
        <time>2026-09-01T07:57:22.3940000+00:00</time>
      </trkpt>
      <trkpt lat="48.143657" lon="10.586158">
        <ele>603.46</ele>
        <time>2026-09-01T07:58:26.5290000+00:00</time>
      </trkpt>
      <trkpt lat="48.143962" lon="10.58642">
        <ele>601.67</ele>
        <time>2026-09-01T07:59:03.1440000+00:00</time>
      </trkpt>
      <trkpt lat="48.144768" lon="10.587872">
        <ele>594.7</ele>
        <time>2026-09-01T08:01:14.4050000+00:00</time>
      </trkpt>
      <trkpt lat="48.144842" lon="10.587866">
        <ele>594.82</ele>
        <time>2026-09-01T08:01:22.1240000+00:00</time>
      </trkpt>
      <trkpt lat="48.145087" lon="10.589377">
        <ele>586.55</ele>
        <time>2026-09-01T08:03:10.1870000+00:00</time>
      </trkpt>
      <trkpt lat="48.146306" lon="10.592066">
        <ele>576.5</ele>
        <time>2026-09-01T08:06:56.1070000+00:00</time>
      </trkpt>
      <trkpt lat="48.146683" lon="10.592665">
        <ele>574.33</ele>
        <time>2026-09-01T08:07:53.3300000+00:00</time>
      </trkpt>
      <trkpt lat="48.147507" lon="10.593431">
        <ele>569.87</ele>
        <time>2026-09-01T08:09:34.3200000+00:00</time>
      </trkpt>
      <trkpt lat="48.147729" lon="10.594062">
        <ele>567.87</ele>
        <time>2026-09-01T08:10:23.8910000+00:00</time>
      </trkpt>
      <trkpt lat="48.1477" lon="10.594417">
        <ele>566.86</ele>
        <time>2026-09-01T08:10:48.7450000+00:00</time>
      </trkpt>
      <trkpt lat="48.147805" lon="10.595651">
        <ele>566.41</ele>
        <time>2026-09-01T08:12:15.1920000+00:00</time>
      </trkpt>
      <trkpt lat="48.147698" lon="10.597974">
        <ele>578.62</ele>
        <time>2026-09-01T08:14:57.0050000+00:00</time>
      </trkpt>
      <trkpt lat="48.147562" lon="10.598306">
        <ele>579.05</ele>
        <time>2026-09-01T08:15:24.0780000+00:00</time>
      </trkpt>
      <trkpt lat="48.146863" lon="10.598973">
        <ele>580.33</ele>
        <time>2026-09-01T08:16:50.3830000+00:00</time>
      </trkpt>
      <trkpt lat="48.146634" lon="10.59941">
        <ele>582.47</ele>
        <time>2026-09-01T08:17:28.9980000+00:00</time>
      </trkpt>
      <trkpt lat="48.145346" lon="10.60112">
        <ele>589.97</ele>
        <time>2026-09-01T08:20:28.2110000+00:00</time>
      </trkpt>
      <trkpt lat="48.144075" lon="10.603384">
        <ele>593.93</ele>
        <time>2026-09-01T08:23:53.8290000+00:00</time>
      </trkpt>
      <trkpt lat="48.143673" lon="10.603924">
        <ele>595.04</ele>
        <time>2026-09-01T08:24:50.0560000+00:00</time>
      </trkpt>
      <trkpt lat="48.143314" lon="10.604268">
        <ele>594.44</ele>
        <time>2026-09-01T08:25:34.4360000+00:00</time>
      </trkpt>
      <trkpt lat="48.142806" lon="10.604566">
        <ele>595.25</ele>
        <time>2026-09-01T08:26:31.2540000+00:00</time>
      </trkpt>
      <trkpt lat="48.142006" lon="10.604864">
        <ele>592.79</ele>
        <time>2026-09-01T08:27:57.1110000+00:00</time>
      </trkpt>
      <trkpt lat="48.141342" lon="10.604864">
        <ele>587.93</ele>
        <time>2026-09-01T08:29:06.2680000+00:00</time>
      </trkpt>
      <trkpt lat="48.140522" lon="10.604682">
        <ele>583.08</ele>
        <time>2026-09-01T08:30:32.6040000+00:00</time>
      </trkpt>
      <trkpt lat="48.140255" lon="10.604677">
        <ele>583.17</ele>
        <time>2026-09-01T08:31:00.4150000+00:00</time>
      </trkpt>
      <trkpt lat="48.139698" lon="10.604863">
        <ele>584.35</ele>
        <time>2026-09-01T08:31:59.8500000+00:00</time>
      </trkpt>
      <trkpt lat="48.139399" lon="10.605157">
        <ele>585.38</ele>
        <time>2026-09-01T08:32:37.0970000+00:00</time>
      </trkpt>
      <trkpt lat="48.138762" lon="10.606178">
        <ele>588.9</ele>
        <time>2026-09-01T08:34:14.2430000+00:00</time>
      </trkpt>
      <trkpt lat="48.138429" lon="10.606534">
        <ele>593.75</ele>
        <time>2026-09-01T08:34:56.8480000+00:00</time>
      </trkpt>
      <trkpt lat="48.135974" lon="10.608134">
        <ele>597.88</ele>
        <time>2026-09-01T08:39:35.6780000+00:00</time>
      </trkpt>
      <trkpt lat="48.134734" lon="10.608444">
        <ele>596.62</ele>
        <time>2026-09-01T08:41:46.6120000+00:00</time>
      </trkpt>
      <trkpt lat="48.134391" lon="10.608662">
        <ele>596.22</ele>
        <time>2026-09-01T08:42:25.4170000+00:00</time>
      </trkpt>
      <trkpt lat="48.133153" lon="10.610115">
        <ele>602.82</ele>
        <time>2026-09-01T08:45:09.2040000+00:00</time>
      </trkpt>
      <trkpt lat="48.132318" lon="10.610836">
        <ele>603.27</ele>
        <time>2026-09-01T08:46:49.5790000+00:00</time>
      </trkpt>
      <trkpt lat="48.132208" lon="10.611031">
        <ele>603.88</ele>
        <time>2026-09-01T08:47:07.3270000+00:00</time>
      </trkpt>
      <trkpt lat="48.132171" lon="10.611556">
        <ele>604.88</ele>
        <time>2026-09-01T08:47:44.0240000+00:00</time>
      </trkpt>
      <trkpt lat="48.131263" lon="10.612637">
        <ele>594.79</ele>
        <time>2026-09-01T08:49:44.8130000+00:00</time>
      </trkpt>
      <trkpt lat="48.130864" lon="10.613414">
        <ele>594.85</ele>
        <time>2026-09-01T08:50:52.9630000+00:00</time>
      </trkpt>
      <trkpt lat="48.130691" lon="10.613954">
        <ele>595.73</ele>
        <time>2026-09-01T08:51:34.6010000+00:00</time>
      </trkpt>
      <trkpt lat="48.13039" lon="10.615499">
        <ele>593.32</ele>
        <time>2026-09-01T08:53:26.4830000+00:00</time>
      </trkpt>
      <trkpt lat="48.130263" lon="10.615998">
        <ele>592.48</ele>
        <time>2026-09-01T08:54:03.6080000+00:00</time>
      </trkpt>
      <trkpt lat="48.129812" lon="10.618162">
        <ele>592.32</ele>
        <time>2026-09-01T08:56:41.2020000+00:00</time>
      </trkpt>
      <trkpt lat="48.128765" lon="10.621072">
        <ele>600.49</ele>
        <time>2026-09-01T09:00:31.0150000+00:00</time>
      </trkpt>
      <trkpt lat="48.128708" lon="10.622339">
        <ele>603.53</ele>
        <time>2026-09-01T09:01:59.2930000+00:00</time>
      </trkpt>
      <trkpt lat="48.128833" lon="10.623634">
        <ele>606.73</ele>
        <time>2026-09-01T09:03:30.2540000+00:00</time>
      </trkpt>
      <trkpt lat="48.129138" lon="10.625683">
        <ele>602.43</ele>
        <time>2026-09-01T09:05:56.1930000+00:00</time>
      </trkpt>
      <trkpt lat="48.12937" lon="10.627856">
        <ele>601.3</ele>
        <time>2026-09-01T09:08:29.1730000+00:00</time>
      </trkpt>
      <trkpt lat="48.129544" lon="10.629765">
        <ele>602.39</ele>
        <time>2026-09-01T09:10:43.1110000+00:00</time>
      </trkpt>
      <trkpt lat="48.129609" lon="10.631339">
        <ele>602.87</ele>
        <time>2026-09-01T09:12:32.7390000+00:00</time>
      </trkpt>
      <trkpt lat="48.129493" lon="10.632134">
        <ele>604.97</ele>
        <time>2026-09-01T09:13:29.3090000+00:00</time>
      </trkpt>
      <trkpt lat="48.12927" lon="10.633265">
        <ele>608.9</ele>
        <time>2026-09-01T09:14:51.2910000+00:00</time>
      </trkpt>
      <trkpt lat="48.129013" lon="10.634336">
        <ele>612.94</ele>
        <time>2026-09-01T09:16:10.4090000+00:00</time>
      </trkpt>
      <trkpt lat="48.128432" lon="10.636519">
        <ele>618.7</ele>
        <time>2026-09-01T09:18:53.7850000+00:00</time>
      </trkpt>
      <trkpt lat="48.128349" lon="10.637198">
        <ele>616.35</ele>
        <time>2026-09-01T09:19:41.7730000+00:00</time>
      </trkpt>
      <trkpt lat="48.128393" lon="10.637997">
        <ele>613.11</ele>
        <time>2026-09-01T09:20:37.5060000+00:00</time>
      </trkpt>
      <trkpt lat="48.128663" lon="10.639645">
        <ele>610.97</ele>
        <time>2026-09-01T09:22:35.4720000+00:00</time>
      </trkpt>
      <trkpt lat="48.128895" lon="10.640458">
        <ele>611.55</ele>
        <time>2026-09-01T09:23:36.9380000+00:00</time>
      </trkpt>
      <trkpt lat="48.129592" lon="10.642531">
        <ele>606.6</ele>
        <time>2026-09-01T09:26:18.2980000+00:00</time>
      </trkpt>
      <trkpt lat="48.129786" lon="10.64296">
        <ele>604.38</ele>
        <time>2026-09-01T09:26:54.3200000+00:00</time>
      </trkpt>
      <trkpt lat="48.13041" lon="10.644049">
        <ele>600.35</ele>
        <time>2026-09-01T09:28:34.0930000+00:00</time>
      </trkpt>
      <trkpt lat="48.130537" lon="10.644368">
        <ele>598.05</ele>
        <time>2026-09-01T09:28:59.9140000+00:00</time>
      </trkpt>
      <trkpt lat="48.131096" lon="10.646347">
        <ele>595.26</ele>
        <time>2026-09-01T09:31:29.2960000+00:00</time>
      </trkpt>
      <trkpt lat="48.131423" lon="10.649275">
        <ele>599.8</ele>
        <time>2026-09-01T09:34:55.6620000+00:00</time>
      </trkpt>
      <trkpt lat="48.131524" lon="10.652176">
        <ele>583.16</ele>
        <time>2026-09-01T09:38:17.5950000+00:00</time>
      </trkpt>
      <trkpt lat="48.132407" lon="10.655697">
        <ele>572.59</ele>
        <time>2026-09-01T09:42:39.0570000+00:00</time>
      </trkpt>
      <trkpt lat="48.132501" lon="10.65656">
        <ele>571.48</ele>
        <time>2026-09-01T09:43:39.8400000+00:00</time>
      </trkpt>
      <trkpt lat="48.132676" lon="10.659784">
        <ele>570.48</ele>
        <time>2026-09-01T09:47:24.6870000+00:00</time>
      </trkpt>
      <trkpt lat="48.132714" lon="10.659982">
        <ele>570.64</ele>
        <time>2026-09-01T09:47:39.0080000+00:00</time>
      </trkpt>
      <trkpt lat="48.132827" lon="10.66004">
        <ele>570.9</ele>
        <time>2026-09-01T09:47:51.4490000+00:00</time>
      </trkpt>
      <trkpt lat="48.133431" lon="10.660078">
        <ele>571.75</ele>
        <time>2026-09-01T09:48:54.4120000+00:00</time>
      </trkpt>
      <trkpt lat="48.133811" lon="10.660185">
        <ele>571.88</ele>
        <time>2026-09-01T09:49:34.6820000+00:00</time>
      </trkpt>
      <trkpt lat="48.135312" lon="10.660905">
        <ele>570.37</ele>
        <time>2026-09-01T09:52:18.8300000+00:00</time>
      </trkpt>
      <trkpt lat="48.136478" lon="10.66142">
        <ele>567.48</ele>
        <time>2026-09-01T09:54:25.4370000+00:00</time>
      </trkpt>
      <trkpt lat="48.137029" lon="10.661681">
        <ele>567.58</ele>
        <time>2026-09-01T09:55:25.6240000+00:00</time>
      </trkpt>
      <trkpt lat="48.139181" lon="10.662895">
        <ele>568.84</ele>
        <time>2026-09-01T09:59:25.1160000+00:00</time>
      </trkpt>
      <trkpt lat="48.140425" lon="10.663679">
        <ele>566.9</ele>
        <time>2026-09-01T10:01:45.6730000+00:00</time>
      </trkpt>
      <trkpt lat="48.141016" lon="10.66388">
        <ele>566.72</ele>
        <time>2026-09-01T10:02:48.7920000+00:00</time>
      </trkpt>
      <trkpt lat="48.14161" lon="10.663991">
        <ele>567.2</ele>
        <time>2026-09-01T10:03:51.1370000+00:00</time>
      </trkpt>
      <trkpt lat="48.142187" lon="10.664144">
        <ele>567.98</ele>
        <time>2026-09-01T10:04:52.1670000+00:00</time>
      </trkpt>
      <trkpt lat="48.144711" lon="10.664913">
        <ele>565.73</ele>
        <time>2026-09-01T10:09:20.4240000+00:00</time>
      </trkpt>
      <trkpt lat="48.145132" lon="10.664961">
        <ele>565.19</ele>
        <time>2026-09-01T10:10:04.3990000+00:00</time>
      </trkpt>
      <trkpt lat="48.145152" lon="10.665045">
        <ele>565.05</ele>
        <time>2026-09-01T10:10:10.5960000+00:00</time>
      </trkpt>
      <trkpt lat="48.146051" lon="10.665358">
        <ele>564.37</ele>
        <time>2026-09-01T10:11:46.7220000+00:00</time>
      </trkpt>
      <trkpt lat="48.146454" lon="10.665518">
        <ele>564.64</ele>
        <time>2026-09-01T10:12:30.1440000+00:00</time>
      </trkpt>
      <trkpt lat="48.147669" lon="10.666056">
        <ele>565.37</ele>
        <time>2026-09-01T10:14:42.0960000+00:00</time>
      </trkpt>
      <trkpt lat="48.149616" lon="10.667225">
        <ele>564.39</ele>
        <time>2026-09-01T10:18:20.5460000+00:00</time>
      </trkpt>
      <trkpt lat="48.151579" lon="10.668678">
        <ele>563.45</ele>
        <time>2026-09-01T10:22:08.5680000+00:00</time>
      </trkpt>
      <trkpt lat="48.153031" lon="10.670445">
        <ele>566</ele>
        <time>2026-09-01T10:25:23.3630000+00:00</time>
      </trkpt>
      <trkpt lat="48.153646" lon="10.671364">
        <ele>565.81</ele>
        <time>2026-09-01T10:26:53.8090000+00:00</time>
      </trkpt>
      <trkpt lat="48.154239" lon="10.672753">
        <ele>562.56</ele>
        <time>2026-09-01T10:28:48.3910000+00:00</time>
      </trkpt>
      <trkpt lat="48.154992" lon="10.673977">
        <ele>561.99</ele>
        <time>2026-09-01T10:30:44.0780000+00:00</time>
      </trkpt>
      <trkpt lat="48.155849" lon="10.674527">
        <ele>563.87</ele>
        <time>2026-09-01T10:32:21.1730000+00:00</time>
      </trkpt>
      <trkpt lat="48.157318" lon="10.675157">
        <ele>561.59</ele>
        <time>2026-09-01T10:35:00.3110000+00:00</time>
      </trkpt>
      <trkpt lat="48.15773" lon="10.675241">
        <ele>561.56</ele>
        <time>2026-09-01T10:35:43.6170000+00:00</time>
      </trkpt>
      <trkpt lat="48.158501" lon="10.675209">
        <ele>562.97</ele>
        <time>2026-09-01T10:37:03.9490000+00:00</time>
      </trkpt>
      <trkpt lat="48.158809" lon="10.675997">
        <ele>560.84</ele>
        <time>2026-09-01T10:38:07.4020000+00:00</time>
      </trkpt>
      <trkpt lat="48.159136" lon="10.676446">
        <ele>560.47</ele>
        <time>2026-09-01T10:38:53.5870000+00:00</time>
      </trkpt>
      <trkpt lat="48.160415" lon="10.67767">
        <ele>558.26</ele>
        <time>2026-09-01T10:41:31.6260000+00:00</time>
      </trkpt>
      <trkpt lat="48.160784" lon="10.677755">
        <ele>558.19</ele>
        <time>2026-09-01T10:42:10.5090000+00:00</time>
      </trkpt>
      <trkpt lat="48.161018" lon="10.677653">
        <ele>558.79</ele>
        <time>2026-09-01T10:42:35.8900000+00:00</time>
      </trkpt>
      <trkpt lat="48.161333" lon="10.677339">
        <ele>560.18</ele>
        <time>2026-09-01T10:43:15.2890000+00:00</time>
      </trkpt>
      <trkpt lat="48.161558" lon="10.677357">
        <ele>560.99</ele>
        <time>2026-09-01T10:43:38.7560000+00:00</time>
      </trkpt>
      <trkpt lat="48.161629" lon="10.677454">
        <ele>560.76</ele>
        <time>2026-09-01T10:43:48.7610000+00:00</time>
      </trkpt>
      <trkpt lat="48.161528" lon="10.678456">
        <ele>560.82</ele>
        <time>2026-09-01T10:44:59.1630000+00:00</time>
      </trkpt>
      <trkpt lat="48.161578" lon="10.678591">
        <ele>560.88</ele>
        <time>2026-09-01T10:45:09.8900000+00:00</time>
      </trkpt>
      <trkpt lat="48.161811" lon="10.678615">
        <ele>560.31</ele>
        <time>2026-09-01T10:45:34.2150000+00:00</time>
      </trkpt>
      <trkpt lat="48.162841" lon="10.678182">
        <ele>558.93</ele>
        <time>2026-09-01T10:47:25.6290000+00:00</time>
      </trkpt>
      <trkpt lat="48.16359" lon="10.678051">
        <ele>558.66</ele>
        <time>2026-09-01T10:48:44.1680000+00:00</time>
      </trkpt>
      <trkpt lat="48.164075" lon="10.678097">
        <ele>558.69</ele>
        <time>2026-09-01T10:49:34.7830000+00:00</time>
      </trkpt>
      <trkpt lat="48.164692" lon="10.678298">
        <ele>559.45</ele>
        <time>2026-09-01T10:50:40.5440000+00:00</time>
      </trkpt>
      <trkpt lat="48.165147" lon="10.678429">
        <ele>559.76</ele>
        <time>2026-09-01T10:51:28.7990000+00:00</time>
      </trkpt>
      <trkpt lat="48.165567" lon="10.678529">
        <ele>560.02</ele>
        <time>2026-09-01T10:52:13.0910000+00:00</time>
      </trkpt>
      <trkpt lat="48.166056" lon="10.678607">
        <ele>560.41</ele>
        <time>2026-09-01T10:53:04.3090000+00:00</time>
      </trkpt>
      <trkpt lat="48.16674" lon="10.678671">
        <ele>561</ele>
        <time>2026-09-01T10:54:15.6880000+00:00</time>
      </trkpt>
      <trkpt lat="48.167308" lon="10.679065">
        <ele>560.27</ele>
        <time>2026-09-01T10:55:20.8700000+00:00</time>
      </trkpt>
      <trkpt lat="48.168061" lon="10.680103">
        <ele>556.72</ele>
        <time>2026-09-01T10:57:07.4050000+00:00</time>
      </trkpt>
      <trkpt lat="48.169033" lon="10.681105">
        <ele>554.02</ele>
        <time>2026-09-01T10:59:10.2600000+00:00</time>
      </trkpt>
      <trkpt lat="48.169501" lon="10.681321">
        <ele>555.1</ele>
        <time>2026-09-01T11:00:01.2600000+00:00</time>
      </trkpt>
      <trkpt lat="48.170066" lon="10.681429">
        <ele>556.91</ele>
        <time>2026-09-01T11:01:00.5820000+00:00</time>
      </trkpt>
      <trkpt lat="48.170558" lon="10.681632">
        <ele>558.32</ele>
        <time>2026-09-01T11:01:53.7290000+00:00</time>
      </trkpt>
      <trkpt lat="48.170986" lon="10.68199">
        <ele>559.84</ele>
        <time>2026-09-01T11:02:44.7730000+00:00</time>
      </trkpt>
      <trkpt lat="48.171478" lon="10.682471">
        <ele>560.5</ele>
        <time>2026-09-01T11:03:45.9460000+00:00</time>
      </trkpt>
      <trkpt lat="48.171878" lon="10.682714">
        <ele>558.12</ele>
        <time>2026-09-01T11:04:30.8960000+00:00</time>
      </trkpt>
      <trkpt lat="48.172236" lon="10.68274">
        <ele>558.2</ele>
        <time>2026-09-01T11:05:08.2260000+00:00</time>
      </trkpt>
      <trkpt lat="48.172453" lon="10.682674">
        <ele>559.2</ele>
        <time>2026-09-01T11:05:31.2870000+00:00</time>
      </trkpt>
      <trkpt lat="48.172951" lon="10.682406">
        <ele>560.71</ele>
        <time>2026-09-01T11:06:26.3940000+00:00</time>
      </trkpt>
      <trkpt lat="48.173295" lon="10.682253">
        <ele>560.25</ele>
        <time>2026-09-01T11:07:03.7650000+00:00</time>
      </trkpt>
      <trkpt lat="48.173714" lon="10.68229">
        <ele>559.29</ele>
        <time>2026-09-01T11:07:47.4800000+00:00</time>
      </trkpt>
      <trkpt lat="48.175388" lon="10.683196">
        <ele>554.51</ele>
        <time>2026-09-01T11:10:52.8390000+00:00</time>
      </trkpt>
      <trkpt lat="48.176569" lon="10.683405">
        <ele>554.88</ele>
        <time>2026-09-01T11:12:56.6960000+00:00</time>
      </trkpt>
      <trkpt lat="48.177047" lon="10.683899">
        <ele>554.18</ele>
        <time>2026-09-01T11:13:57.1580000+00:00</time>
      </trkpt>
      <trkpt lat="48.17799" lon="10.68499">
        <ele>554.2</ele>
        <time>2026-09-01T11:16:01.2050000+00:00</time>
      </trkpt>
      <trkpt lat="48.178435" lon="10.685261">
        <ele>554.61</ele>
        <time>2026-09-01T11:16:51.2280000+00:00</time>
      </trkpt>
      <trkpt lat="48.1793" lon="10.685683">
        <ele>554.15</ele>
        <time>2026-09-01T11:18:25.9670000+00:00</time>
      </trkpt>
      <trkpt lat="48.180382" lon="10.685299">
        <ele>557.09</ele>
        <time>2026-09-01T11:20:21.7720000+00:00</time>
      </trkpt>
      <trkpt lat="48.180915" lon="10.685464">
        <ele>557.97</ele>
        <time>2026-09-01T11:21:18.4550000+00:00</time>
      </trkpt>
      <trkpt lat="48.181622" lon="10.686193">
        <ele>558.14</ele>
        <time>2026-09-01T11:22:47.8150000+00:00</time>
      </trkpt>
      <trkpt lat="48.182301" lon="10.687065">
        <ele>557.34</ele>
        <time>2026-09-01T11:24:20.9180000+00:00</time>
      </trkpt>
      <trkpt lat="48.18304" lon="10.688655">
        <ele>552.91</ele>
        <time>2026-09-01T11:26:35.5140000+00:00</time>
      </trkpt>
      <trkpt lat="48.183347" lon="10.688697">
        <ele>553.62</ele>
        <time>2026-09-01T11:27:07.6210000+00:00</time>
      </trkpt>
      <trkpt lat="48.184018" lon="10.689316">
        <ele>554.41</ele>
        <time>2026-09-01T11:28:29.6690000+00:00</time>
      </trkpt>
      <trkpt lat="48.184293" lon="10.689494">
        <ele>554.76</ele>
        <time>2026-09-01T11:29:00.8640000+00:00</time>
      </trkpt>
      <trkpt lat="48.184801" lon="10.689727">
        <ele>555.75</ele>
        <time>2026-09-01T11:29:56.1920000+00:00</time>
      </trkpt>
      <trkpt lat="48.185206" lon="10.689841">
        <ele>555.72</ele>
        <time>2026-09-01T11:30:39.1090000+00:00</time>
      </trkpt>
      <trkpt lat="48.185868" lon="10.689714">
        <ele>557.52</ele>
        <time>2026-09-01T11:31:48.6200000+00:00</time>
      </trkpt>
      <trkpt lat="48.186291" lon="10.689792">
        <ele>558.24</ele>
        <time>2026-09-01T11:32:33.0080000+00:00</time>
      </trkpt>
      <trkpt lat="48.186559" lon="10.690477">
        <ele>554.22</ele>
        <time>2026-09-01T11:33:28.1590000+00:00</time>
      </trkpt>
      <trkpt lat="48.186798" lon="10.690834">
        <ele>553.72</ele>
        <time>2026-09-01T11:34:03.2900000+00:00</time>
      </trkpt>
      <trkpt lat="48.187796" lon="10.691858999999999">
        <ele>552.56</ele>
        <time>2026-09-01T11:36:09.2660000+00:00</time>
      </trkpt>
      <trkpt lat="48.188681" lon="10.693931">
        <ele>547.98</ele>
        <time>2026-09-01T11:39:00.1330000+00:00</time>
      </trkpt>
      <trkpt lat="48.189428" lon="10.694867">
        <ele>547.27</ele>
        <time>2026-09-01T11:40:41.5080000+00:00</time>
      </trkpt>
      <trkpt lat="48.189686" lon="10.695088">
        <ele>547.15</ele>
        <time>2026-09-01T11:41:12.4530000+00:00</time>
      </trkpt>
      <trkpt lat="48.191136" lon="10.696085">
        <ele>547</ele>
        <time>2026-09-01T11:43:58.5830000+00:00</time>
      </trkpt>
      <trkpt lat="48.193636" lon="10.697492">
        <ele>545.22</ele>
        <time>2026-09-01T11:48:36.6860000+00:00</time>
      </trkpt>
      <trkpt lat="48.194689" lon="10.698188">
        <ele>546.56</ele>
        <time>2026-09-01T11:50:36.5310000+00:00</time>
      </trkpt>
      <trkpt lat="48.195633" lon="10.699321">
        <ele>543.89</ele>
        <time>2026-09-01T11:52:42.4450000+00:00</time>
      </trkpt>
      <trkpt lat="48.196299" lon="10.699861">
        <ele>546.4</ele>
        <time>2026-09-01T11:54:01.2940000+00:00</time>
      </trkpt>
      <trkpt lat="48.196723" lon="10.700132">
        <ele>547.22</ele>
        <time>2026-09-01T11:54:49.2950000+00:00</time>
      </trkpt>
      <trkpt lat="48.197877" lon="10.700607">
        <ele>548.93</ele>
        <time>2026-09-01T11:56:53.9280000+00:00</time>
      </trkpt>
      <trkpt lat="48.198245" lon="10.700794">
        <ele>548.91</ele>
        <time>2026-09-01T11:57:34.3950000+00:00</time>
      </trkpt>
      <trkpt lat="48.198794" lon="10.701236">
        <ele>549.74</ele>
        <time>2026-09-01T11:58:39.2870000+00:00</time>
      </trkpt>
      <trkpt lat="48.199238" lon="10.701747">
        <ele>547.1</ele>
        <time>2026-09-01T11:59:37.5700000+00:00</time>
      </trkpt>
      <trkpt lat="48.200415" lon="10.702425">
        <ele>548.38</ele>
        <time>2026-09-01T12:01:48.8830000+00:00</time>
      </trkpt>
      <trkpt lat="48.200728" lon="10.702483">
        <ele>549.76</ele>
        <time>2026-09-01T12:02:21.7300000+00:00</time>
      </trkpt>
      <trkpt lat="48.201059" lon="10.702501">
        <ele>550.34</ele>
        <time>2026-09-01T12:02:56.2270000+00:00</time>
      </trkpt>
      <trkpt lat="48.201156" lon="10.702608">
        <ele>550.12</ele>
        <time>2026-09-01T12:03:08.7670000+00:00</time>
      </trkpt>
      <trkpt lat="48.20113" lon="10.702721">
        <ele>549.66</ele>
        <time>2026-09-01T12:03:17.0650000+00:00</time>
      </trkpt>
      <trkpt lat="48.200872" lon="10.703247">
        <ele>547</ele>
        <time>2026-09-01T12:04:02.4010000+00:00</time>
      </trkpt>
      <trkpt lat="48.200354" lon="10.704445">
        <ele>542.98</ele>
        <time>2026-09-01T12:05:41.5330000+00:00</time>
      </trkpt>
      <trkpt lat="48.199815" lon="10.705826">
        <ele>543.02</ele>
        <time>2026-09-01T12:07:32.6300000+00:00</time>
      </trkpt>
      <trkpt lat="48.199708" lon="10.705826">
        <ele>543.15</ele>
        <time>2026-09-01T12:07:43.7740000+00:00</time>
      </trkpt>
      <trkpt lat="48.199514" lon="10.706297">
        <ele>543.12</ele>
        <time>2026-09-01T12:08:22.2110000+00:00</time>
      </trkpt>
      <trkpt lat="48.198863" lon="10.709141">
        <ele>541.62</ele>
        <time>2026-09-01T12:11:50.9650000+00:00</time>
      </trkpt>
      <trkpt lat="48.198381" lon="10.712818">
        <ele>544.05</ele>
        <time>2026-09-01T12:16:11.1210000+00:00</time>
      </trkpt>
      <trkpt lat="48.198386" lon="10.713603">
        <ele>544.38</ele>
        <time>2026-09-01T12:17:05.6200000+00:00</time>
      </trkpt>
      <trkpt lat="48.198303" lon="10.714286">
        <ele>542.38</ele>
        <time>2026-09-01T12:17:53.8180000+00:00</time>
      </trkpt>
      <trkpt lat="48.197959" lon="10.717761">
        <ele>542.24</ele>
        <time>2026-09-01T12:21:57.7100000+00:00</time>
      </trkpt>
      <trkpt lat="48.1978" lon="10.719215">
        <ele>543.77</ele>
        <time>2026-09-01T12:23:40.0010000+00:00</time>
      </trkpt>
      <trkpt lat="48.197674" lon="10.719875">
        <ele>545.05</ele>
        <time>2026-09-01T12:24:27.6630000+00:00</time>
      </trkpt>
      <trkpt lat="48.197558" lon="10.72028">
        <ele>545.48</ele>
        <time>2026-09-01T12:24:58.2650000+00:00</time>
      </trkpt>
      <trkpt lat="48.197258" lon="10.720874">
        <ele>544.18</ele>
        <time>2026-09-01T12:25:50.0040000+00:00</time>
      </trkpt>
      <trkpt lat="48.19684" lon="10.721402">
        <ele>543.66</ele>
        <time>2026-09-01T12:26:46.9160000+00:00</time>
      </trkpt>
      <trkpt lat="48.195975" lon="10.722279">
        <ele>542.41</ele>
        <time>2026-09-01T12:28:35.6530000+00:00</time>
      </trkpt>
      <trkpt lat="48.195489" lon="10.722705">
        <ele>541.99</ele>
        <time>2026-09-01T12:29:34.2780000+00:00</time>
      </trkpt>
      <trkpt lat="48.193821" lon="10.7241">
        <ele>548.27</ele>
        <time>2026-09-01T12:32:53.1770000+00:00</time>
      </trkpt>
      <trkpt lat="48.193379" lon="10.724518">
        <ele>549.97</ele>
        <time>2026-09-01T12:33:47.5970000+00:00</time>
      </trkpt>
      <trkpt lat="48.193077" lon="10.72492">
        <ele>550.8</ele>
        <time>2026-09-01T12:34:29.6480000+00:00</time>
      </trkpt>
      <trkpt lat="48.192802" lon="10.725453">
        <ele>550.28</ele>
        <time>2026-09-01T12:35:16.4440000+00:00</time>
      </trkpt>
      <trkpt lat="48.192527" lon="10.726181">
        <ele>548.79</ele>
        <time>2026-09-01T12:36:14.5410000+00:00</time>
      </trkpt>
      <trkpt lat="48.192299" lon="10.726993">
        <ele>544.67</ele>
        <time>2026-09-01T12:37:15.7150000+00:00</time>
      </trkpt>
      <trkpt lat="48.19152" lon="10.730677">
        <ele>542.44</ele>
        <time>2026-09-01T12:41:44.0610000+00:00</time>
      </trkpt>
      <trkpt lat="48.191197" lon="10.733189">
        <ele>542.93</ele>
        <time>2026-09-01T12:44:41.6900000+00:00</time>
      </trkpt>
      <trkpt lat="48.191024" lon="10.733784">
        <ele>543.74</ele>
        <time>2026-09-01T12:45:26.7610000+00:00</time>
      </trkpt>
      <trkpt lat="48.191064" lon="10.734019">
        <ele>543.83</ele>
        <time>2026-09-01T12:45:43.6010000+00:00</time>
      </trkpt>
      <trkpt lat="48.19145" lon="10.734107">
        <ele>543.11</ele>
        <time>2026-09-01T12:46:24.2660000+00:00</time>
      </trkpt>
      <trkpt lat="48.192119" lon="10.734397">
        <ele>541.53</ele>
        <time>2026-09-01T12:47:36.7940000+00:00</time>
      </trkpt>
      <trkpt lat="48.193576" lon="10.734996">
        <ele>541.52</ele>
        <time>2026-09-01T12:50:14.1400000+00:00</time>
      </trkpt>
      <trkpt lat="48.195104" lon="10.73587">
        <ele>539.88</ele>
        <time>2026-09-01T12:53:04.4600000+00:00</time>
      </trkpt>
      <trkpt lat="48.198881" lon="10.737971">
        <ele>540.1</ele>
        <time>2026-09-01T13:00:04.0140000+00:00</time>
      </trkpt>
      <trkpt lat="48.198918" lon="10.738229">
        <ele>540.04</ele>
        <time>2026-09-01T13:00:22.3340000+00:00</time>
      </trkpt>
      <trkpt lat="48.198516" lon="10.739781">
        <ele>539.44</ele>
        <time>2026-09-01T13:02:17.9270000+00:00</time>
      </trkpt>
      <trkpt lat="48.198318" lon="10.740644">
        <ele>540.55</ele>
        <time>2026-09-01T13:03:21.2890000+00:00</time>
      </trkpt>
      <trkpt lat="48.198171" lon="10.743203">
        <ele>539.58</ele>
        <time>2026-09-01T13:06:19.6010000+00:00</time>
      </trkpt>
      <trkpt lat="48.198312" lon="10.743215">
        <ele>539.5</ele>
        <time>2026-09-01T13:06:34.3100000+00:00</time>
      </trkpt>
      <trkpt lat="48.200356" lon="10.744469">
        <ele>537.7</ele>
        <time>2026-09-01T13:10:24.3090000+00:00</time>
      </trkpt>
      <trkpt lat="48.201047" lon="10.744953">
        <ele>537</ele>
        <time>2026-09-01T13:11:43.7350000+00:00</time>
      </trkpt>
      <trkpt lat="48.202296" lon="10.745889">
        <ele>539.13</ele>
        <time>2026-09-01T13:14:09.1450000+00:00</time>
      </trkpt>
      <trkpt lat="48.202769" lon="10.746275">
        <ele>538.47</ele>
        <time>2026-09-01T13:15:05.2240000+00:00</time>
      </trkpt>
      <trkpt lat="48.202961" lon="10.746459">
        <ele>538.24</ele>
        <time>2026-09-01T13:15:28.9530000+00:00</time>
      </trkpt>
      <trkpt lat="48.205945" lon="10.749106">
        <ele>537.32</ele>
        <time>2026-09-01T13:21:29.9940000+00:00</time>
      </trkpt>
      <trkpt lat="48.207335" lon="10.750361">
        <ele>535.83</ele>
        <time>2026-09-01T13:24:18.9530000+00:00</time>
      </trkpt>
      <trkpt lat="48.207633" lon="10.750251">
        <ele>536.32</ele>
        <time>2026-09-01T13:24:50.9160000+00:00</time>
      </trkpt>
      <trkpt lat="48.208078" lon="10.750746">
        <ele>536.26</ele>
        <time>2026-09-01T13:25:48.6090000+00:00</time>
      </trkpt>
      <trkpt lat="48.208377" lon="10.751034">
        <ele>536.01</ele>
        <time>2026-09-01T13:26:25.6150000+00:00</time>
      </trkpt>
      <trkpt lat="48.209451" lon="10.752127">
        <ele>535.45</ele>
        <time>2026-09-01T13:28:40.7730000+00:00</time>
      </trkpt>
      <trkpt lat="48.211111" lon="10.753785">
        <ele>534.87</ele>
        <time>2026-09-01T13:32:08.4610000+00:00</time>
      </trkpt>
      <trkpt lat="48.211375" lon="10.754083">
        <ele>534.91</ele>
        <time>2026-09-01T13:32:42.8680000+00:00</time>
      </trkpt>
      <trkpt lat="48.211413" lon="10.754356">
        <ele>534.91</ele>
        <time>2026-09-01T13:33:02.2240000+00:00</time>
      </trkpt>
      <trkpt lat="48.21109" lon="10.754802">
        <ele>534.77</ele>
        <time>2026-09-01T13:33:47.9400000+00:00</time>
      </trkpt>
      <trkpt lat="48.209861" lon="10.757387">
        <ele>536.58</ele>
        <time>2026-09-01T13:37:28.3370000+00:00</time>
      </trkpt>
      <trkpt lat="48.208558" lon="10.760042">
        <ele>538.04</ele>
        <time>2026-09-01T13:41:17.1950000+00:00</time>
      </trkpt>
      <trkpt lat="48.208337" lon="10.760534">
        <ele>538.26</ele>
        <time>2026-09-01T13:41:58.3770000+00:00</time>
      </trkpt>
      <trkpt lat="48.208216" lon="10.761067">
        <ele>537.89</ele>
        <time>2026-09-01T13:42:37.4600000+00:00</time>
      </trkpt>
      <trkpt lat="48.208279" lon="10.761549">
        <ele>537.33</ele>
        <time>2026-09-01T13:43:11.5530000+00:00</time>
      </trkpt>
      <trkpt lat="48.211516" lon="10.761808">
        <ele>535.93</ele>
        <time>2026-09-01T13:48:49.1720000+00:00</time>
      </trkpt>
      <trkpt lat="48.212336" lon="10.761847">
        <ele>535.96</ele>
        <time>2026-09-01T13:50:14.6200000+00:00</time>
      </trkpt>
      <trkpt lat="48.21332" lon="10.761819">
        <ele>535.13</ele>
        <time>2026-09-01T13:51:57.1240000+00:00</time>
      </trkpt>
      <trkpt lat="48.214028" lon="10.761758">
        <ele>535.74</ele>
        <time>2026-09-01T13:53:10.9850000+00:00</time>
      </trkpt>
      <trkpt lat="48.214881" lon="10.761725">
        <ele>535.48</ele>
        <time>2026-09-01T13:54:39.8560000+00:00</time>
      </trkpt>
      <trkpt lat="48.215046" lon="10.761707">
        <ele>534.96</ele>
        <time>2026-09-01T13:54:57.0860000+00:00</time>
      </trkpt>
      <trkpt lat="48.215872" lon="10.761788">
        <ele>532.57</ele>
        <time>2026-09-01T13:56:23.2990000+00:00</time>
      </trkpt>
      <trkpt lat="48.217075" lon="10.762094">
        <ele>531.87</ele>
        <time>2026-09-01T13:58:30.3810000+00:00</time>
      </trkpt>
      <trkpt lat="48.218206" lon="10.762495">
        <ele>531.24</ele>
        <time>2026-09-01T14:00:31.4190000+00:00</time>
      </trkpt>
      <trkpt lat="48.219552" lon="10.762852">
        <ele>530.02</ele>
        <time>2026-09-01T14:02:53.7800000+00:00</time>
      </trkpt>
      <trkpt lat="48.221775" lon="10.763592">
        <ele>530.32</ele>
        <time>2026-09-01T14:06:50.9360000+00:00</time>
      </trkpt>
      <trkpt lat="48.224111" lon="10.764517">
        <ele>529.47</ele>
        <time>2026-09-01T14:11:02.5600000+00:00</time>
      </trkpt>
      <trkpt lat="48.226724" lon="10.76571">
        <ele>527.23</ele>
        <time>2026-09-01T14:15:47.0200000+00:00</time>
      </trkpt>
      <trkpt lat="48.227123" lon="10.765882">
        <ele>527.27</ele>
        <time>2026-09-01T14:16:30.2560000+00:00</time>
      </trkpt>
      <trkpt lat="48.227214" lon="10.765833">
        <ele>527.41</ele>
        <time>2026-09-01T14:16:40.3250000+00:00</time>
      </trkpt>
      <trkpt lat="48.227223" lon="10.764014">
        <ele>527.31</ele>
        <time>2026-09-01T14:18:46.5380000+00:00</time>
      </trkpt>
      <trkpt lat="48.227248" lon="10.763399">
        <ele>526.58</ele>
        <time>2026-09-01T14:19:29.2880000+00:00</time>
      </trkpt>
      <trkpt lat="48.227381" lon="10.762816">
        <ele>528.84</ele>
        <time>2026-09-01T14:20:12.0450000+00:00</time>
      </trkpt>
      <trkpt lat="48.22814" lon="10.761576">
        <ele>532.6</ele>
        <time>2026-09-01T14:22:08.8830000+00:00</time>
      </trkpt>
      <trkpt lat="48.228401" lon="10.761191">
        <ele>529.71</ele>
        <time>2026-09-01T14:22:46.9940000+00:00</time>
      </trkpt>
      <trkpt lat="48.2287" lon="10.760817">
        <ele>527.91</ele>
        <time>2026-09-01T14:23:27.5300000+00:00</time>
      </trkpt>
      <trkpt lat="48.229073" lon="10.760286">
        <ele>526.99</ele>
        <time>2026-09-01T14:24:21.0700000+00:00</time>
      </trkpt>
      <trkpt lat="48.229962" lon="10.758925">
        <ele>528.28</ele>
        <time>2026-09-01T14:26:33.3180000+00:00</time>
      </trkpt>
      <trkpt lat="48.230818" lon="10.757258">
        <ele>527.79</ele>
        <time>2026-09-01T14:28:59.3480000+00:00</time>
      </trkpt>
      <trkpt lat="48.231166" lon="10.756406">
        <ele>526.81</ele>
        <time>2026-09-01T14:30:08.6860000+00:00</time>
      </trkpt>
      <trkpt lat="48.231521" lon="10.755428">
        <ele>527.5</ele>
        <time>2026-09-01T14:31:25.9580000+00:00</time>
      </trkpt>
      <trkpt lat="48.232036" lon="10.75359">
        <ele>527.74</ele>
        <time>2026-09-01T14:33:44.2960000+00:00</time>
      </trkpt>
      <trkpt lat="48.232285" lon="10.752447">
        <ele>527.34</ele>
        <time>2026-09-01T14:35:07.7270000+00:00</time>
      </trkpt>
      <trkpt lat="48.232635" lon="10.749631">
        <ele>528.3</ele>
        <time>2026-09-01T14:38:26.4640000+00:00</time>
      </trkpt>
      <trkpt lat="48.232682" lon="10.747222">
        <ele>530.66</ele>
        <time>2026-09-01T14:41:13.6630000+00:00</time>
      </trkpt>
      <trkpt lat="48.232485" lon="10.74501">
        <ele>531.6</ele>
        <time>2026-09-01T14:43:48.4900000+00:00</time>
      </trkpt>
      <trkpt lat="48.232115" lon="10.742874">
        <ele>543.03</ele>
        <time>2026-09-01T14:46:21.6080000+00:00</time>
      </trkpt>
      <trkpt lat="48.231642" lon="10.740714">
        <ele>553.73</ele>
        <time>2026-09-01T14:48:59.3530000+00:00</time>
      </trkpt>
      <trkpt lat="48.231513" lon="10.739534">
        <ele>567.73</ele>
        <time>2026-09-01T14:50:22.3140000+00:00</time>
      </trkpt>
      <trkpt lat="48.231814" lon="10.735948">
        <ele>588.75</ele>
        <time>2026-09-01T14:54:33.0700000+00:00</time>
      </trkpt>
      <trkpt lat="48.231774" lon="10.733365">
        <ele>585.02</ele>
        <time>2026-09-01T14:57:32.3210000+00:00</time>
      </trkpt>
      <trkpt lat="48.231786" lon="10.732773">
        <ele>582.01</ele>
        <time>2026-09-01T14:58:13.4120000+00:00</time>
      </trkpt>
      <trkpt lat="48.231952" lon="10.732014">
        <ele>576.92</ele>
        <time>2026-09-01T14:59:08.8350000+00:00</time>
      </trkpt>
      <trkpt lat="48.232359" lon="10.731283">
        <ele>570.99</ele>
        <time>2026-09-01T15:00:14.9320000+00:00</time>
      </trkpt>
      <trkpt lat="48.232806" lon="10.730925">
        <ele>569.44</ele>
        <time>2026-09-01T15:01:07.6990000+00:00</time>
      </trkpt>
      <trkpt lat="48.233225" lon="10.73082">
        <ele>568.51</ele>
        <time>2026-09-01T15:01:51.9430000+00:00</time>
      </trkpt>
      <trkpt lat="48.23533" lon="10.731346">
        <ele>560.97</ele>
        <time>2026-09-01T15:05:34.1990000+00:00</time>
      </trkpt>
      <trkpt lat="48.236189" lon="10.731465">
        <ele>561.89</ele>
        <time>2026-09-01T15:07:04.0450000+00:00</time>
      </trkpt>
      <trkpt lat="48.237159" lon="10.731851">
        <ele>559.13</ele>
        <time>2026-09-01T15:08:48.5610000+00:00</time>
      </trkpt>
      <trkpt lat="48.237602" lon="10.731875">
        <ele>559.4</ele>
        <time>2026-09-01T15:09:34.7310000+00:00</time>
      </trkpt>
      <trkpt lat="48.238004" lon="10.731792">
        <ele>560.08</ele>
        <time>2026-09-01T15:10:16.9940000+00:00</time>
      </trkpt>
      <trkpt lat="48.238804" lon="10.731513">
        <ele>560.54</ele>
        <time>2026-09-01T15:11:42.5340000+00:00</time>
      </trkpt>
      <trkpt lat="48.239251" lon="10.73121">
        <ele>560.36</ele>
        <time>2026-09-01T15:12:33.6140000+00:00</time>
      </trkpt>
      <trkpt lat="48.239525" lon="10.730934">
        <ele>558.55</ele>
        <time>2026-09-01T15:13:07.9790000+00:00</time>
      </trkpt>
      <trkpt lat="48.240099" lon="10.730112">
        <ele>556.93</ele>
        <time>2026-09-01T15:14:30.5940000+00:00</time>
      </trkpt>
      <trkpt lat="48.240498" lon="10.729723">
        <ele>560.26</ele>
        <time>2026-09-01T15:15:20.1430000+00:00</time>
      </trkpt>
      <trkpt lat="48.240722" lon="10.72961">
        <ele>561.01</ele>
        <time>2026-09-01T15:15:44.7540000+00:00</time>
      </trkpt>
      <trkpt lat="48.242294" lon="10.72903">
        <ele>556.77</ele>
        <time>2026-09-01T15:18:33.3520000+00:00</time>
      </trkpt>
      <trkpt lat="48.242794" lon="10.728914">
        <ele>553.98</ele>
        <time>2026-09-01T15:19:26.0460000+00:00</time>
      </trkpt>
      <trkpt lat="48.24312" lon="10.728966">
        <ele>551.61</ele>
        <time>2026-09-01T15:20:00.1910000+00:00</time>
      </trkpt>
      <trkpt lat="48.243713" lon="10.729327">
        <ele>549.43</ele>
        <time>2026-09-01T15:21:06.8350000+00:00</time>
      </trkpt>
      <trkpt lat="48.244237" lon="10.729524">
        <ele>549.26</ele>
        <time>2026-09-01T15:22:03.0960000+00:00</time>
      </trkpt>
      <trkpt lat="48.246498" lon="10.72992">
        <ele>552.97</ele>
        <time>2026-09-01T15:26:00.1800000+00:00</time>
      </trkpt>
      <trkpt lat="48.248595" lon="10.731406">
        <ele>555.96</ele>
        <time>2026-09-01T15:30:01.6830000+00:00</time>
      </trkpt>
      <trkpt lat="48.248941" lon="10.731796">
        <ele>554.54</ele>
        <time>2026-09-01T15:30:46.7410000+00:00</time>
      </trkpt>
      <trkpt lat="48.249098" lon="10.732153">
        <ele>552.71</ele>
        <time>2026-09-01T15:31:16.4130000+00:00</time>
      </trkpt>
      <trkpt lat="48.249197" lon="10.732615">
        <ele>550.66</ele>
        <time>2026-09-01T15:31:50.0720000+00:00</time>
      </trkpt>
      <trkpt lat="48.24919" lon="10.733291">
        <ele>550.03</ele>
        <time>2026-09-01T15:32:36.9610000+00:00</time>
      </trkpt>
      <trkpt lat="48.249278" lon="10.733613">
        <ele>549.32</ele>
        <time>2026-09-01T15:33:01.1010000+00:00</time>
      </trkpt>
      <trkpt lat="48.249791" lon="10.734512">
        <ele>547.85</ele>
        <time>2026-09-01T15:34:23.2120000+00:00</time>
      </trkpt>
      <trkpt lat="48.250337" lon="10.735749">
        <ele>552.34</ele>
        <time>2026-09-01T15:36:06.1370000+00:00</time>
      </trkpt>
      <trkpt lat="48.250797" lon="10.736093">
        <ele>554.85</ele>
        <time>2026-09-01T15:36:59.6590000+00:00</time>
      </trkpt>
      <trkpt lat="48.251689" lon="10.736246">
        <ele>557.23</ele>
        <time>2026-09-01T15:38:33.1660000+00:00</time>
      </trkpt>
      <trkpt lat="48.252231" lon="10.736464">
        <ele>555.53</ele>
        <time>2026-09-01T15:39:31.6060000+00:00</time>
      </trkpt>
      <trkpt lat="48.25371" lon="10.737278">
        <ele>551.17</ele>
        <time>2026-09-01T15:42:15.6650000+00:00</time>
      </trkpt>
      <trkpt lat="48.25429" lon="10.737205">
        <ele>549.66</ele>
        <time>2026-09-01T15:43:16.2850000+00:00</time>
      </trkpt>
      <trkpt lat="48.254422" lon="10.737101">
        <ele>549.25</ele>
        <time>2026-09-01T15:43:31.8090000+00:00</time>
      </trkpt>
      <trkpt lat="48.254936" lon="10.73571">
        <ele>548.63</ele>
        <time>2026-09-01T15:45:22.1300000+00:00</time>
      </trkpt>
      <trkpt lat="48.255174" lon="10.735338">
        <ele>547.49</ele>
        <time>2026-09-01T15:45:57.9060000+00:00</time>
      </trkpt>
      <trkpt lat="48.255996" lon="10.735166">
        <ele>548.38</ele>
        <time>2026-09-01T15:47:24.3460000+00:00</time>
      </trkpt>
      <trkpt lat="48.257051" lon="10.734715">
        <ele>552.82</ele>
        <time>2026-09-01T15:49:18.5900000+00:00</time>
      </trkpt>
      <trkpt lat="48.257249" lon="10.734363">
        <ele>554.18</ele>
        <time>2026-09-01T15:49:50.5440000+00:00</time>
      </trkpt>
      <trkpt lat="48.25729" lon="10.733875">
        <ele>557.75</ele>
        <time>2026-09-01T15:50:24.6520000+00:00</time>
      </trkpt>
      <trkpt lat="48.257047" lon="10.732107">
        <ele>566.55</ele>
        <time>2026-09-01T15:52:29.8360000+00:00</time>
      </trkpt>
      <trkpt lat="48.257042" lon="10.730862">
        <ele>574.41</ele>
        <time>2026-09-01T15:53:56.1700000+00:00</time>
      </trkpt>
      <trkpt lat="48.256461" lon="10.7282">
        <ele>579.43</ele>
        <time>2026-09-01T15:57:10.4290000+00:00</time>
      </trkpt>
      <trkpt lat="48.256273" lon="10.727553">
        <ele>579.26</ele>
        <time>2026-09-01T15:57:59.3810000+00:00</time>
      </trkpt>
      <trkpt lat="48.256073" lon="10.72695">
        <ele>579.93</ele>
        <time>2026-09-01T15:58:46.0970000+00:00</time>
      </trkpt>
      <trkpt lat="48.256067" lon="10.726885">
        <ele>580.06</ele>
        <time>2026-09-01T15:58:50.6470000+00:00</time>
      </trkpt>
      <trkpt lat="48.255673" lon="10.725783">
        <ele>578.11</ele>
        <time>2026-09-01T16:00:17.3860000+00:00</time>
      </trkpt>
      <trkpt lat="48.254198" lon="10.721227">
        <ele>577.67</ele>
        <time>2026-09-01T16:06:08.6970000+00:00</time>
      </trkpt>
      <trkpt lat="48.25398" lon="10.720336">
        <ele>577.01</ele>
        <time>2026-09-01T16:07:14.5250000+00:00</time>
      </trkpt>
      <trkpt lat="48.253922" lon="10.719598">
        <ele>576.72</ele>
        <time>2026-09-01T16:08:06.0590000+00:00</time>
      </trkpt>
      <trkpt lat="48.25391" lon="10.719079">
        <ele>576.3</ele>
        <time>2026-09-01T16:08:42.0720000+00:00</time>
      </trkpt>
      <trkpt lat="48.253864" lon="10.718464">
        <ele>576.86</ele>
        <time>2026-09-01T16:09:24.9890000+00:00</time>
      </trkpt>
      <trkpt lat="48.253687" lon="10.717639">
        <ele>583.63</ele>
        <time>2026-09-01T16:10:25.0980000+00:00</time>
      </trkpt>
      <trkpt lat="48.252849" lon="10.715248">
        <ele>599.98</ele>
        <time>2026-09-01T16:13:32.4780000+00:00</time>
      </trkpt>
      <trkpt lat="48.252633" lon="10.714422">
        <ele>599.96</ele>
        <time>2026-09-01T16:14:34.0200000+00:00</time>
      </trkpt>
      <trkpt lat="48.252485" lon="10.713599">
        <ele>598.89</ele>
        <time>2026-09-01T16:15:33.1390000+00:00</time>
      </trkpt>
      <trkpt lat="48.252301" lon="10.713016">
        <ele>598.59</ele>
        <time>2026-09-01T16:16:17.8820000+00:00</time>
      </trkpt>
      <trkpt lat="48.25184" lon="10.712179">
        <ele>593.73</ele>
        <time>2026-09-01T16:17:33.2130000+00:00</time>
      </trkpt>
      <trkpt lat="48.251528" lon="10.711254">
        <ele>591.75</ele>
        <time>2026-09-01T16:18:45.1230000+00:00</time>
      </trkpt>
      <trkpt lat="48.251433" lon="10.710674">
        <ele>593.05</ele>
        <time>2026-09-01T16:19:26.5450000+00:00</time>
      </trkpt>
      <trkpt lat="48.251165" lon="10.708185">
        <ele>592.17</ele>
        <time>2026-09-01T16:22:21.4030000+00:00</time>
      </trkpt>
      <trkpt lat="48.251188" lon="10.707409">
        <ele>591.91</ele>
        <time>2026-09-01T16:23:15.2730000+00:00</time>
      </trkpt>
      <trkpt lat="48.250946" lon="10.706365">
        <ele>588.99</ele>
        <time>2026-09-01T16:24:31.9370000+00:00</time>
      </trkpt>
      <trkpt lat="48.250539" lon="10.705593">
        <ele>581.7</ele>
        <time>2026-09-01T16:25:40.2270000+00:00</time>
      </trkpt>
      <trkpt lat="48.250475" lon="10.70521">
        <ele>579.17</ele>
        <time>2026-09-01T16:26:07.6120000+00:00</time>
      </trkpt>
      <trkpt lat="48.25046" lon="10.704651">
        <ele>575.65</ele>
        <time>2026-09-01T16:26:46.4110000+00:00</time>
      </trkpt>
      <trkpt lat="48.250683" lon="10.702967">
        <ele>566.49</ele>
        <time>2026-09-01T16:28:45.4880000+00:00</time>
      </trkpt>
      <trkpt lat="48.25075" lon="10.701766">
        <ele>557.24</ele>
        <time>2026-09-01T16:30:09.0710000+00:00</time>
      </trkpt>
      <trkpt lat="48.250903" lon="10.701257">
        <ele>558</ele>
        <time>2026-09-01T16:30:47.8010000+00:00</time>
      </trkpt>
      <trkpt lat="48.251048" lon="10.700019">
        <ele>552.41</ele>
        <time>2026-09-01T16:32:14.9770000+00:00</time>
      </trkpt>
      <trkpt lat="48.250956" lon="10.699849">
        <ele>549.31</ele>
        <time>2026-09-01T16:32:30.1690000+00:00</time>
      </trkpt>
      <trkpt lat="48.250507" lon="10.699746">
        <ele>543.16</ele>
        <time>2026-09-01T16:33:17.4760000+00:00</time>
      </trkpt>
      <trkpt lat="48.249964" lon="10.698757">
        <ele>537.52</ele>
        <time>2026-09-01T16:34:46.3750000+00:00</time>
      </trkpt>
      <trkpt lat="48.249884" lon="10.698346">
        <ele>537.19</ele>
        <time>2026-09-01T16:35:16.0710000+00:00</time>
      </trkpt>
      <trkpt lat="48.249961" lon="10.697727">
        <ele>536.04</ele>
        <time>2026-09-01T16:35:59.7440000+00:00</time>
      </trkpt>
      <trkpt lat="48.249861" lon="10.697228">
        <ele>533.52</ele>
        <time>2026-09-01T16:36:35.8840000+00:00</time>
      </trkpt>
      <trkpt lat="48.249206" lon="10.69705">
        <ele>534.08</ele>
        <time>2026-09-01T16:37:45.2120000+00:00</time>
      </trkpt>
      <trkpt lat="48.249748" lon="10.697162">
        <ele>533.55</ele>
        <time>2026-09-01T16:38:42.1940000+00:00</time>
      </trkpt>
      <trkpt lat="48.249871" lon="10.697041">
        <ele>532.35</ele>
        <time>2026-09-01T16:38:57.5090000+00:00</time>
      </trkpt>
      <trkpt lat="48.250163" lon="10.695707">
        <ele>528.41</ele>
        <time>2026-09-01T16:40:34.8960000+00:00</time>
      </trkpt>
      <trkpt lat="48.250125" lon="10.695346">
        <ele>528.71</ele>
        <time>2026-09-01T16:41:00.2430000+00:00</time>
      </trkpt>
      <trkpt lat="48.249796" lon="10.69461">
        <ele>530.33</ele>
        <time>2026-09-01T16:42:01.7220000+00:00</time>
      </trkpt>
      <trkpt lat="48.248906" lon="10.694142">
        <ele>530.54</ele>
        <time>2026-09-01T16:43:39.9350000+00:00</time>
      </trkpt>
      <trkpt lat="48.248196" lon="10.693355">
        <ele>531.01</ele>
        <time>2026-09-01T16:45:11.8460000+00:00</time>
      </trkpt>
      <trkpt lat="48.248071" lon="10.693043">
        <ele>531.99</ele>
        <time>2026-09-01T16:45:37.0990000+00:00</time>
      </trkpt>
      <trkpt lat="48.247995" lon="10.692574">
        <ele>533.29</ele>
        <time>2026-09-01T16:46:10.5760000+00:00</time>
      </trkpt>
      <trkpt lat="48.2476" lon="10.691848">
        <ele>535.47</ele>
        <time>2026-09-01T16:47:15.5980000+00:00</time>
      </trkpt>
      <trkpt lat="48.247184" lon="10.690619">
        <ele>541.32</ele>
        <time>2026-09-01T16:48:51.2170000+00:00</time>
      </trkpt>
      <trkpt lat="48.247192" lon="10.689333">
        <ele>545.53</ele>
        <time>2026-09-01T16:50:20.4140000+00:00</time>
      </trkpt>
      <trkpt lat="48.247448" lon="10.688344">
        <ele>549.84</ele>
        <time>2026-09-01T16:51:34.0070000+00:00</time>
      </trkpt>
      <trkpt lat="48.247502" lon="10.687151">
        <ele>554.86</ele>
        <time>2026-09-01T16:52:56.9400000+00:00</time>
      </trkpt>
      <trkpt lat="48.247729" lon="10.685901">
        <ele>560.09</ele>
        <time>2026-09-01T16:54:26.8020000+00:00</time>
      </trkpt>
      <trkpt lat="48.247755" lon="10.685373">
        <ele>561.83</ele>
        <time>2026-09-01T16:55:03.5220000+00:00</time>
      </trkpt>
      <trkpt lat="48.24728" lon="10.681744">
        <ele>588.46</ele>
        <time>2026-09-01T16:59:20.0320000+00:00</time>
      </trkpt>
      <trkpt lat="48.246887" lon="10.679275">
        <ele>598.35</ele>
        <time>2026-09-01T17:02:16.0980000+00:00</time>
      </trkpt>
      <trkpt lat="48.246954" lon="10.676858">
        <ele>602.87</ele>
        <time>2026-09-01T17:05:03.8790000+00:00</time>
      </trkpt>
      <trkpt lat="48.246904" lon="10.675319">
        <ele>603.54</ele>
        <time>2026-09-01T17:06:50.7470000+00:00</time>
      </trkpt>
      <trkpt lat="48.246816" lon="10.674098">
        <ele>603.91</ele>
        <time>2026-09-01T17:08:15.9260000+00:00</time>
      </trkpt>
      <trkpt lat="48.246695" lon="10.672875">
        <ele>602.46</ele>
        <time>2026-09-01T17:09:41.6810000+00:00</time>
      </trkpt>
      <trkpt lat="48.246534" lon="10.671824">
        <ele>600.08</ele>
        <time>2026-09-01T17:10:56.4800000+00:00</time>
      </trkpt>
      <trkpt lat="48.246378" lon="10.671013">
        <ele>598.29</ele>
        <time>2026-09-01T17:11:55.0290000+00:00</time>
      </trkpt>
      <trkpt lat="48.245429" lon="10.66724">
        <ele>594.27</ele>
        <time>2026-09-01T17:16:34.7620000+00:00</time>
      </trkpt>
      <trkpt lat="48.2453" lon="10.666432">
        <ele>595.4</ele>
        <time>2026-09-01T17:17:32.3920000+00:00</time>
      </trkpt>
      <trkpt lat="48.245164" lon="10.664797">
        <ele>598.21</ele>
        <time>2026-09-01T17:19:26.6760000+00:00</time>
      </trkpt>
      <trkpt lat="48.244945" lon="10.663752">
        <ele>600.08</ele>
        <time>2026-09-01T17:20:42.6610000+00:00</time>
      </trkpt>
      <trkpt lat="48.244475" lon="10.6622">
        <ele>599.52</ele>
        <time>2026-09-01T17:22:40.9160000+00:00</time>
      </trkpt>
      <trkpt lat="48.243618" lon="10.660304">
        <ele>591.61</ele>
        <time>2026-09-01T17:25:19.8540000+00:00</time>
      </trkpt>
      <trkpt lat="48.243439" lon="10.65972">
        <ele>589.87</ele>
        <time>2026-09-01T17:26:04.4460000+00:00</time>
      </trkpt>
      <trkpt lat="48.243343" lon="10.658721">
        <ele>590.49</ele>
        <time>2026-09-01T17:27:14.4560000+00:00</time>
      </trkpt>
      <trkpt lat="48.243367" lon="10.657431">
        <ele>585.43</ele>
        <time>2026-09-01T17:28:43.9680000+00:00</time>
      </trkpt>
      <trkpt lat="48.24308" lon="10.655877">
        <ele>578</ele>
        <time>2026-09-01T17:30:35.8240000+00:00</time>
      </trkpt>
      <trkpt lat="48.242863" lon="10.653725">
        <ele>562.9</ele>
        <time>2026-09-01T17:33:06.7940000+00:00</time>
      </trkpt>
      <trkpt lat="48.242688" lon="10.653114">
        <ele>558.72</ele>
        <time>2026-09-01T17:33:52.9280000+00:00</time>
      </trkpt>
      <trkpt lat="48.242104" lon="10.651827">
        <ele>546.82</ele>
        <time>2026-09-01T17:35:40.9500000+00:00</time>
      </trkpt>
      <trkpt lat="48.241585" lon="10.649599">
        <ele>532.35</ele>
        <time>2026-09-01T17:38:24.6740000+00:00</time>
      </trkpt>
      <trkpt lat="48.24139" lon="10.648369">
        <ele>529.56</ele>
        <time>2026-09-01T17:39:52.3760000+00:00</time>
      </trkpt>
      <trkpt lat="48.241396" lon="10.647952">
        <ele>529.26</ele>
        <time>2026-09-01T17:40:21.3080000+00:00</time>
      </trkpt>
      <trkpt lat="48.241692" lon="10.646302">
        <ele>531.82</ele>
        <time>2026-09-01T17:42:19.8390000+00:00</time>
      </trkpt>
      <trkpt lat="48.241876" lon="10.645483">
        <ele>529.84</ele>
        <time>2026-09-01T17:43:19.7930000+00:00</time>
      </trkpt>
      <trkpt lat="48.242099" lon="10.644733">
        <ele>528</ele>
        <time>2026-09-01T17:44:16.7650000+00:00</time>
      </trkpt>
      <trkpt lat="48.242501" lon="10.643726">
        <ele>526.25</ele>
        <time>2026-09-01T17:45:38.2020000+00:00</time>
      </trkpt>
      <trkpt lat="48.243755" lon="10.641427">
        <ele>526.41</ele>
        <time>2026-09-01T17:49:04.3250000+00:00</time>
      </trkpt>
      <trkpt lat="48.244027" lon="10.640881">
        <ele>521.84</ele>
        <time>2026-09-01T17:49:51.6200000+00:00</time>
      </trkpt>
      <trkpt lat="48.2443" lon="10.640021">
        <ele>517</ele>
        <time>2026-09-01T17:50:57.7000000+00:00</time>
      </trkpt>
      <trkpt lat="48.244335" lon="10.639857">
        <ele>516.33</ele>
        <time>2026-09-01T17:51:09.6450000+00:00</time>
      </trkpt>
      <trkpt lat="48.244276" lon="10.639637">
        <ele>515.34</ele>
        <time>2026-09-01T17:51:26.0950000+00:00</time>
      </trkpt>
      <trkpt lat="48.243752" lon="10.639328">
        <ele>515.38</ele>
        <time>2026-09-01T17:52:24.7280000+00:00</time>
      </trkpt>
      <trkpt lat="48.24293" lon="10.639241">
        <ele>517.84</ele>
        <time>2026-09-01T17:53:50.5540000+00:00</time>
      </trkpt>
      <trkpt lat="48.242432" lon="10.639069">
        <ele>518.68</ele>
        <time>2026-09-01T17:54:43.7760000+00:00</time>
      </trkpt>
      <trkpt lat="48.240571" lon="10.638473">
        <ele>522.2</ele>
        <time>2026-09-01T17:58:01.9620000+00:00</time>
      </trkpt>
      <trkpt lat="48.239954" lon="10.638429">
        <ele>521.61</ele>
        <time>2026-09-01T17:59:06.2970000+00:00</time>
      </trkpt>
      <trkpt lat="48.239606" lon="10.638332">
        <ele>521.29</ele>
        <time>2026-09-01T17:59:43.1610000+00:00</time>
      </trkpt>
      <trkpt lat="48.237683" lon="10.638766">
        <ele>531.53</ele>
        <time>2026-09-01T18:03:05.6950000+00:00</time>
      </trkpt>
      <trkpt lat="48.236481" lon="10.638433">
        <ele>533.27</ele>
        <time>2026-09-01T18:05:12.9990000+00:00</time>
      </trkpt>
      <trkpt lat="48.235799" lon="10.637768">
        <ele>531.76</ele>
        <time>2026-09-01T18:06:37.6970000+00:00</time>
      </trkpt>
      <trkpt lat="48.235318" lon="10.637367">
        <ele>531.21</ele>
        <time>2026-09-01T18:07:35.0000000+00:00</time>
      </trkpt>
      <trkpt lat="48.234993" lon="10.637311">
        <ele>532.33</ele>
        <time>2026-09-01T18:08:09.0710000+00:00</time>
      </trkpt>
      <trkpt lat="48.234621" lon="10.637408">
        <ele>535.13</ele>
        <time>2026-09-01T18:08:48.3960000+00:00</time>
      </trkpt>
      <trkpt lat="48.23399" lon="10.637821">
        <ele>547.05</ele>
        <time>2026-09-01T18:10:00.0900000+00:00</time>
      </trkpt>
      <trkpt lat="48.232985" lon="10.638024">
        <ele>538.72</ele>
        <time>2026-09-01T18:11:45.7060000+00:00</time>
      </trkpt>
      <trkpt lat="48.230538" lon="10.641198">
        <ele>532.51</ele>
        <time>2026-09-01T18:17:22.5200000+00:00</time>
      </trkpt>
      <trkpt lat="48.230355" lon="10.64117">
        <ele>531.4</ele>
        <time>2026-09-01T18:17:41.6780000+00:00</time>
      </trkpt>
      <trkpt lat="48.229999" lon="10.640867">
        <ele>526.81</ele>
        <time>2026-09-01T18:18:24.3010000+00:00</time>
      </trkpt>
      <trkpt lat="48.229749" lon="10.640513">
        <ele>522.28</ele>
        <time>2026-09-01T18:19:00.0950000+00:00</time>
      </trkpt>
      <trkpt lat="48.229391" lon="10.639865">
        <ele>520.2</ele>
        <time>2026-09-01T18:19:58.5040000+00:00</time>
      </trkpt>
      <trkpt lat="48.229482" lon="10.639317">
        <ele>519.69</ele>
        <time>2026-09-01T18:20:37.6880000+00:00</time>
      </trkpt>
      <trkpt lat="48.229982" lon="10.638547">
        <ele>523.29</ele>
        <time>2026-09-01T18:21:52.2930000+00:00</time>
      </trkpt>
      <trkpt lat="48.229549" lon="10.636769">
        <ele>531.05</ele>
        <time>2026-09-01T18:24:03.6360000+00:00</time>
      </trkpt>
      <trkpt lat="48.229561" lon="10.635954">
        <ele>534.34</ele>
        <time>2026-09-01T18:25:00.1960000+00:00</time>
      </trkpt>
      <trkpt lat="48.229748" lon="10.635332">
        <ele>534.78</ele>
        <time>2026-09-01T18:25:47.5420000+00:00</time>
      </trkpt>
      <trkpt lat="48.230178" lon="10.634585">
        <ele>536.58</ele>
        <time>2026-09-01T18:26:56.0380000+00:00</time>
      </trkpt>
      <trkpt lat="48.23057" lon="10.632803">
        <ele>544.92</ele>
        <time>2026-09-01T18:29:06.2390000+00:00</time>
      </trkpt>
      <trkpt lat="48.230859" lon="10.629669">
        <ele>554.04</ele>
        <time>2026-09-01T18:32:45.7470000+00:00</time>
      </trkpt>
      <trkpt lat="48.231561" lon="10.624215">
        <ele>565.96</ele>
        <time>2026-09-01T18:39:11.1360000+00:00</time>
      </trkpt>
      <trkpt lat="48.231738" lon="10.623735">
        <ele>572.43</ele>
        <time>2026-09-01T18:39:49.2000000+00:00</time>
      </trkpt>
      <trkpt lat="48.232903" lon="10.622311">
        <ele>592.54</ele>
        <time>2026-09-01T18:42:25.6690000+00:00</time>
      </trkpt>
      <trkpt lat="48.233033" lon="10.621838">
        <ele>593.83</ele>
        <time>2026-09-01T18:43:01.1670000+00:00</time>
      </trkpt>
      <trkpt lat="48.233114" lon="10.619493">
        <ele>604.75</ele>
        <time>2026-09-01T18:45:44.0730000+00:00</time>
      </trkpt>
      <trkpt lat="48.233082" lon="10.617363">
        <ele>605.11</ele>
        <time>2026-09-01T18:48:11.8810000+00:00</time>
      </trkpt>
      <trkpt lat="48.23286" lon="10.61172">
        <ele>605.68</ele>
        <time>2026-09-01T18:54:44.0520000+00:00</time>
      </trkpt>
      <trkpt lat="48.233167" lon="10.607585">
        <ele>586.11</ele>
        <time>2026-09-01T18:59:32.6980000+00:00</time>
      </trkpt>
      <trkpt lat="48.233167" lon="10.606867">
        <ele>578.44</ele>
        <time>2026-09-01T19:00:22.5100000+00:00</time>
      </trkpt>
      <trkpt lat="48.233042" lon="10.606116">
        <ele>568.16</ele>
        <time>2026-09-01T19:01:16.2130000+00:00</time>
      </trkpt>
      <trkpt lat="48.232865" lon="10.605575">
        <ele>565.89</ele>
        <time>2026-09-01T19:01:58.0280000+00:00</time>
      </trkpt>
      <trkpt lat="48.231894" lon="10.603655">
        <ele>555.43</ele>
        <time>2026-09-01T19:04:45.2730000+00:00</time>
      </trkpt>
      <trkpt lat="48.23207" lon="10.603495">
        <ele>553.84</ele>
        <time>2026-09-01T19:05:06.7030000+00:00</time>
      </trkpt>
      <trkpt lat="48.23278" lon="10.60338">
        <ele>559.08</ele>
        <time>2026-09-01T19:06:21.0800000+00:00</time>
      </trkpt>
      <trkpt lat="48.233311" lon="10.603637">
        <ele>565.54</ele>
        <time>2026-09-01T19:07:19.1880000+00:00</time>
      </trkpt>
      <trkpt lat="48.233707" lon="10.604279">
        <ele>572.7</ele>
        <time>2026-09-01T19:08:19.8900000+00:00</time>
      </trkpt>
      <trkpt lat="48.233981" lon="10.605222">
        <ele>577.3</ele>
        <time>2026-09-01T19:09:31.2640000+00:00</time>
      </trkpt>
      <trkpt lat="48.234185" lon="10.605635">
        <ele>581.1</ele>
        <time>2026-09-01T19:10:06.9340000+00:00</time>
      </trkpt>
      <trkpt lat="48.23444" lon="10.605925">
        <ele>586</ele>
        <time>2026-09-01T19:10:40.2530000+00:00</time>
      </trkpt>
      <trkpt lat="48.234673" lon="10.605976">
        <ele>590.48</ele>
        <time>2026-09-01T19:11:04.7770000+00:00</time>
      </trkpt>
      <trkpt lat="48.234832" lon="10.605752">
        <ele>593.13</ele>
        <time>2026-09-01T19:11:27.4860000+00:00</time>
      </trkpt>
      <trkpt lat="48.234803" lon="10.605568">
        <ele>592.97</ele>
        <time>2026-09-01T19:11:40.6040000+00:00</time>
      </trkpt>
      <trkpt lat="48.235091" lon="10.604761">
        <ele>590.26</ele>
        <time>2026-09-01T19:12:44.1170000+00:00</time>
      </trkpt>
      <trkpt lat="48.235665" lon="10.603935">
        <ele>586.84</ele>
        <time>2026-09-01T19:14:06.9280000+00:00</time>
      </trkpt>
      <trkpt lat="48.235928" lon="10.602486">
        <ele>582.54</ele>
        <time>2026-09-01T19:15:51.1130000+00:00</time>
      </trkpt>
      <trkpt lat="48.236148" lon="10.60217">
        <ele>581.12</ele>
        <time>2026-09-01T19:16:22.8240000+00:00</time>
      </trkpt>
      <trkpt lat="48.236577" lon="10.601927">
        <ele>577.06</ele>
        <time>2026-09-01T19:17:10.5790000+00:00</time>
      </trkpt>
      <trkpt lat="48.23683" lon="10.601431">
        <ele>576.69</ele>
        <time>2026-09-01T19:17:53.9180000+00:00</time>
      </trkpt>
      <trkpt lat="48.237209" lon="10.601008">
        <ele>575.08</ele>
        <time>2026-09-01T19:18:43.1040000+00:00</time>
      </trkpt>
      <trkpt lat="48.237267" lon="10.600841">
        <ele>575.67</ele>
        <time>2026-09-01T19:18:56.1690000+00:00</time>
      </trkpt>
      <trkpt lat="48.237203" lon="10.600272">
        <ele>580.05</ele>
        <time>2026-09-01T19:19:36.2000000+00:00</time>
      </trkpt>
      <trkpt lat="48.237524" lon="10.599933">
        <ele>580.59</ele>
        <time>2026-09-01T19:20:17.0750000+00:00</time>
      </trkpt>
      <trkpt lat="48.237616" lon="10.599521">
        <ele>583.1</ele>
        <time>2026-09-01T19:20:47.2190000+00:00</time>
      </trkpt>
      <trkpt lat="48.237721" lon="10.599357">
        <ele>582.99</ele>
        <time>2026-09-01T19:21:02.9990000+00:00</time>
      </trkpt>
      <trkpt lat="48.237902" lon="10.599315">
        <ele>582.56</ele>
        <time>2026-09-01T19:21:22.0740000+00:00</time>
      </trkpt>
      <trkpt lat="48.239711" lon="10.599642">
        <ele>563.55</ele>
        <time>2026-09-01T19:24:31.8460000+00:00</time>
      </trkpt>
      <trkpt lat="48.240476" lon="10.600407">
        <ele>550.54</ele>
        <time>2026-09-01T19:26:07.5760000+00:00</time>
      </trkpt>
      <trkpt lat="48.240686" lon="10.600479">
        <ele>548.3</ele>
        <time>2026-09-01T19:26:30.0110000+00:00</time>
      </trkpt>
      <trkpt lat="48.240955" lon="10.600387">
        <ele>546.53</ele>
        <time>2026-09-01T19:26:58.7460000+00:00</time>
      </trkpt>
      <trkpt lat="48.241902" lon="10.599398">
        <ele>540.65</ele>
        <time>2026-09-01T19:28:58.8890000+00:00</time>
      </trkpt>
      <trkpt lat="48.242364" lon="10.5987">
        <ele>537.53</ele>
        <time>2026-09-01T19:30:07.1490000+00:00</time>
      </trkpt>
      <trkpt lat="48.243928" lon="10.594526">
        <ele>515</ele>
        <time>2026-09-01T19:35:39.3470000+00:00</time>
      </trkpt>
      <trkpt lat="48.243832" lon="10.594334">
        <ele>515.75</ele>
        <time>2026-09-01T19:35:56.0000000+00:00</time>
      </trkpt>
      <trkpt lat="48.243244" lon="10.593896">
        <ele>516.66</ele>
        <time>2026-09-01T19:37:04.3630000+00:00</time>
      </trkpt>
      <trkpt lat="48.242558" lon="10.592976">
        <ele>518.93</ele>
        <time>2026-09-01T19:38:40.1590000+00:00</time>
      </trkpt>
      <trkpt lat="48.242986" lon="10.591918">
        <ele>524.5</ele>
        <time>2026-09-01T19:40:06.0230000+00:00</time>
      </trkpt>
      <trkpt lat="48.243101" lon="10.591307">
        <ele>528.14</ele>
        <time>2026-09-01T19:40:50.0640000+00:00</time>
      </trkpt>
      <trkpt lat="48.243113" lon="10.588311">
        <ele>543.83</ele>
        <time>2026-09-01T19:44:17.8770000+00:00</time>
      </trkpt>
      <trkpt lat="48.243026" lon="10.587144">
        <ele>546.85</ele>
        <time>2026-09-01T19:45:39.3280000+00:00</time>
      </trkpt>
      <trkpt lat="48.242898" lon="10.586459">
        <ele>545.77</ele>
        <time>2026-09-01T19:46:28.6760000+00:00</time>
      </trkpt>
      <trkpt lat="48.242225" lon="10.585221">
        <ele>544.72</ele>
        <time>2026-09-01T19:48:19.5240000+00:00</time>
      </trkpt>
      <trkpt lat="48.24207" lon="10.584639">
        <ele>545.65</ele>
        <time>2026-09-01T19:49:03.0010000+00:00</time>
      </trkpt>
      <trkpt lat="48.242091" lon="10.582969">
        <ele>545.69</ele>
        <time>2026-09-01T19:50:58.8590000+00:00</time>
      </trkpt>
      <trkpt lat="48.241837" lon="10.581459">
        <ele>542.09</ele>
        <time>2026-09-01T19:52:46.8880000+00:00</time>
      </trkpt>
      <trkpt lat="48.241819" lon="10.580915">
        <ele>541.82</ele>
        <time>2026-09-01T19:53:24.6680000+00:00</time>
      </trkpt>
      <trkpt lat="48.241644" lon="10.580511">
        <ele>539.93</ele>
        <time>2026-09-01T19:53:58.0980000+00:00</time>
      </trkpt>
      <trkpt lat="48.242342" lon="10.578591">
        <ele>546.02</ele>
        <time>2026-09-01T19:56:29.8260000+00:00</time>
      </trkpt>
      <trkpt lat="48.242452" lon="10.577572">
        <ele>549.09</ele>
        <time>2026-09-01T19:57:41.4300000+00:00</time>
      </trkpt>
      <trkpt lat="48.242236" lon="10.575979">
        <ele>550.54</ele>
        <time>2026-09-01T19:59:34.1920000+00:00</time>
      </trkpt>
      <trkpt lat="48.241676" lon="10.573448">
        <ele>564.49</ele>
        <time>2026-09-01T20:02:39.1870000+00:00</time>
      </trkpt>
      <trkpt lat="48.241548" lon="10.572514">
        <ele>566.56</ele>
        <time>2026-09-01T20:03:45.3310000+00:00</time>
      </trkpt>
      <trkpt lat="48.241337" lon="10.569205">
        <ele>594.02</ele>
        <time>2026-09-01T20:07:35.9080000+00:00</time>
      </trkpt>
      <trkpt lat="48.241423" lon="10.567827">
        <ele>591.32</ele>
        <time>2026-09-01T20:09:11.9110000+00:00</time>
      </trkpt>
      <trkpt lat="48.241623" lon="10.566226">
        <ele>594.43</ele>
        <time>2026-09-01T20:11:04.9000000+00:00</time>
      </trkpt>
      <trkpt lat="48.241469" lon="10.564792">
        <ele>595.66</ele>
        <time>2026-09-01T20:12:45.6540000+00:00</time>
      </trkpt>
      <trkpt lat="48.241518" lon="10.563476">
        <ele>591.38</ele>
        <time>2026-09-01T20:14:17.0800000+00:00</time>
      </trkpt>
      <trkpt lat="48.241373" lon="10.562039">
        <ele>584.61</ele>
        <time>2026-09-01T20:15:57.8940000+00:00</time>
      </trkpt>
      <trkpt lat="48.24109" lon="10.560278">
        <ele>589.51</ele>
        <time>2026-09-01T20:18:03.5520000+00:00</time>
      </trkpt>
      <trkpt lat="48.240858" lon="10.557729">
        <ele>574.09</ele>
        <time>2026-09-01T20:21:02.0070000+00:00</time>
      </trkpt>
      <trkpt lat="48.240919" lon="10.557209">
        <ele>569.67</ele>
        <time>2026-09-01T20:21:38.6320000+00:00</time>
      </trkpt>
      <trkpt lat="48.241513" lon="10.556261">
        <ele>562.23</ele>
        <time>2026-09-01T20:23:08.9180000+00:00</time>
      </trkpt>
      <trkpt lat="48.242291" lon="10.554475">
        <ele>558.13</ele>
        <time>2026-09-01T20:25:36.9490000+00:00</time>
      </trkpt>
      <trkpt lat="48.242546" lon="10.553688">
        <ele>557.26</ele>
        <time>2026-09-01T20:26:37.6560000+00:00</time>
      </trkpt>
      <trkpt lat="48.242783" lon="10.55247">
        <ele>559.3</ele>
        <time>2026-09-01T20:28:05.6720000+00:00</time>
      </trkpt>
      <trkpt lat="48.242863" lon="10.552304">
        <ele>559.28</ele>
        <time>2026-09-01T20:28:19.8840000+00:00</time>
      </trkpt>
      <trkpt lat="48.243463" lon="10.551656">
        <ele>558.29</ele>
        <time>2026-09-01T20:29:36.8610000+00:00</time>
      </trkpt>
      <trkpt lat="48.244366" lon="10.551069">
        <ele>558</ele>
        <time>2026-09-01T20:31:19.3450000+00:00</time>
      </trkpt>
      <trkpt lat="48.244515" lon="10.55086">
        <ele>557.66</ele>
        <time>2026-09-01T20:31:40.5810000+00:00</time>
      </trkpt>
      <trkpt lat="48.245024" lon="10.549631">
        <ele>558.21</ele>
        <time>2026-09-01T20:33:20.9640000+00:00</time>
      </trkpt>
      <trkpt lat="48.245256" lon="10.549532">
        <ele>557.96</ele>
        <time>2026-09-01T20:33:46.0840000+00:00</time>
      </trkpt>
      <trkpt lat="48.245984" lon="10.549669">
        <ele>555.62</ele>
        <time>2026-09-01T20:35:02.5000000+00:00</time>
      </trkpt>
      <trkpt lat="48.246223" lon="10.5496">
        <ele>555.31</ele>
        <time>2026-09-01T20:35:27.8480000+00:00</time>
      </trkpt>
      <trkpt lat="48.246448" lon="10.549163">
        <ele>556.86</ele>
        <time>2026-09-01T20:36:06.1600000+00:00</time>
      </trkpt>
      <trkpt lat="48.246599" lon="10.54869">
        <ele>558.11</ele>
        <time>2026-09-01T20:36:42.5410000+00:00</time>
      </trkpt>
      <trkpt lat="48.24685" lon="10.546715">
        <ele>545.85</ele>
        <time>2026-09-01T20:39:01.9950000+00:00</time>
      </trkpt>
      <trkpt lat="48.246909" lon="10.545174">
        <ele>534.57</ele>
        <time>2026-09-01T20:40:49.0500000+00:00</time>
      </trkpt>
      <trkpt lat="48.246845" lon="10.543465">
        <ele>527.38</ele>
        <time>2026-09-01T20:42:47.7690000+00:00</time>
      </trkpt>
      <trkpt lat="48.246592" lon="10.538981">
        <ele>522.42</ele>
        <time>2026-09-01T20:47:59.8820000+00:00</time>
      </trkpt>
      <trkpt lat="48.246587" lon="10.53858">
        <ele>523.64</ele>
        <time>2026-09-01T20:48:27.6990000+00:00</time>
      </trkpt>
      <trkpt lat="48.246679" lon="10.538031">
        <ele>526.48</ele>
        <time>2026-09-01T20:49:06.9640000+00:00</time>
      </trkpt>
      <trkpt lat="48.24725" lon="10.536491">
        <ele>528.68</ele>
        <time>2026-09-01T20:51:09.2140000+00:00</time>
      </trkpt>
      <trkpt lat="48.247423" lon="10.535603">
        <ele>530.14</ele>
        <time>2026-09-01T20:52:13.3840000+00:00</time>
      </trkpt>
      <trkpt lat="48.247453" lon="10.534722">
        <ele>525.54</ele>
        <time>2026-09-01T20:53:14.5670000+00:00</time>
      </trkpt>
      <trkpt lat="48.247318" lon="10.533581999999999">
        <ele>519.46</ele>
        <time>2026-09-01T20:54:34.8740000+00:00</time>
      </trkpt>
      <trkpt lat="48.247442" lon="10.532983">
        <ele>516.87</ele>
        <time>2026-09-01T20:55:18.3790000+00:00</time>
      </trkpt>
      <trkpt lat="48.247471" lon="10.53199">
        <ele>514.4</ele>
        <time>2026-09-01T20:56:27.3160000+00:00</time>
      </trkpt>
      <trkpt lat="48.24769" lon="10.531138">
        <ele>511.11</ele>
        <time>2026-09-01T20:57:30.6570000+00:00</time>
      </trkpt>
      <trkpt lat="48.247814" lon="10.530717">
        <ele>508.46</ele>
        <time>2026-09-01T20:58:02.5850000+00:00</time>
      </trkpt>
      <trkpt lat="48.248209" lon="10.530075">
        <ele>505.34</ele>
        <time>2026-09-01T20:59:03.2070000+00:00</time>
      </trkpt>
      <trkpt lat="48.248336" lon="10.52941">
        <ele>504.07</ele>
        <time>2026-09-01T20:59:51.1880000+00:00</time>
      </trkpt>
      <trkpt lat="48.249607" lon="10.528084">
        <ele>503.25</ele>
        <time>2026-09-01T21:02:32.3740000+00:00</time>
      </trkpt>
      <trkpt lat="48.249996" lon="10.527907">
        <ele>502.56</ele>
        <time>2026-09-01T21:03:14.7080000+00:00</time>
      </trkpt>
      <trkpt lat="48.25091" lon="10.528184">
        <ele>502.7</ele>
        <time>2026-09-01T21:04:51.8220000+00:00</time>
      </trkpt>
      <trkpt lat="48.25124" lon="10.528422">
        <ele>503.92</ele>
        <time>2026-09-01T21:05:29.9500000+00:00</time>
      </trkpt>
      <trkpt lat="48.251897" lon="10.52948">
        <ele>508.33</ele>
        <time>2026-09-01T21:07:10.2790000+00:00</time>
      </trkpt>
      <trkpt lat="48.252118" lon="10.529705">
        <ele>510.36</ele>
        <time>2026-09-01T21:07:38.0870000+00:00</time>
      </trkpt>
      <trkpt lat="48.252737" lon="10.529967">
        <ele>516.61</ele>
        <time>2026-09-01T21:08:45.0690000+00:00</time>
      </trkpt>
      <trkpt lat="48.253537" lon="10.530912">
        <ele>527.48</ele>
        <time>2026-09-01T21:10:31.0750000+00:00</time>
      </trkpt>
      <trkpt lat="48.254621" lon="10.531461">
        <ele>538.28</ele>
        <time>2026-09-01T21:12:30.2220000+00:00</time>
      </trkpt>
      <trkpt lat="48.255269" lon="10.532087">
        <ele>546.9</ele>
        <time>2026-09-01T21:13:50.4680000+00:00</time>
      </trkpt>
      <trkpt lat="48.255832" lon="10.532876">
        <ele>546.37</ele>
        <time>2026-09-01T21:15:10.6680000+00:00</time>
      </trkpt>
      <trkpt lat="48.255967" lon="10.533354">
        <ele>545.16</ele>
        <time>2026-09-01T21:15:46.6730000+00:00</time>
      </trkpt>
      <trkpt lat="48.256033" lon="10.534139">
        <ele>542.75</ele>
        <time>2026-09-01T21:16:41.5410000+00:00</time>
      </trkpt>
      <trkpt lat="48.256145" lon="10.534346">
        <ele>541.96</ele>
        <time>2026-09-01T21:17:00.0380000+00:00</time>
      </trkpt>
      <trkpt lat="48.256361" lon="10.534026">
        <ele>542.45</ele>
        <time>2026-09-01T21:17:31.6370000+00:00</time>
      </trkpt>
      <trkpt lat="48.256671" lon="10.532689">
        <ele>552.4</ele>
        <time>2026-09-01T21:19:09.8120000+00:00</time>
      </trkpt>
      <trkpt lat="48.256668" lon="10.53238">
        <ele>556.25</ele>
        <time>2026-09-01T21:19:31.2410000+00:00</time>
      </trkpt>
      <trkpt lat="48.256256" lon="10.530174">
        <ele>575.43</ele>
        <time>2026-09-01T21:22:10.1190000+00:00</time>
      </trkpt>
      <trkpt lat="48.256251" lon="10.530011">
        <ele>574.3</ele>
        <time>2026-09-01T21:22:21.4340000+00:00</time>
      </trkpt>
      <trkpt lat="48.256332" lon="10.529892">
        <ele>574.27</ele>
        <time>2026-09-01T21:22:33.2350000+00:00</time>
      </trkpt>
      <trkpt lat="48.257094" lon="10.530028">
        <ele>579.99</ele>
        <time>2026-09-01T21:23:53.1570000+00:00</time>
      </trkpt>
      <trkpt lat="48.258509" lon="10.529808">
        <ele>572.91</ele>
        <time>2026-09-01T21:26:21.3200000+00:00</time>
      </trkpt>
      <trkpt lat="48.260273" lon="10.529225">
        <ele>579.04</ele>
        <time>2026-09-01T21:29:29.4390000+00:00</time>
      </trkpt>
      <trkpt lat="48.262109" lon="10.528274">
        <ele>571.09</ele>
        <time>2026-09-01T21:32:51.7120000+00:00</time>
      </trkpt>
      <trkpt lat="48.263035" lon="10.528299">
        <ele>571.95</ele>
        <time>2026-09-01T21:34:28.1730000+00:00</time>
      </trkpt>
      <trkpt lat="48.263188" lon="10.528412">
        <ele>572.58</ele>
        <time>2026-09-01T21:34:45.9300000+00:00</time>
      </trkpt>
      <trkpt lat="48.263349" lon="10.528736">
        <ele>574.31</ele>
        <time>2026-09-01T21:35:13.9630000+00:00</time>
      </trkpt>
      <trkpt lat="48.263872" lon="10.528857">
        <ele>575.24</ele>
        <time>2026-09-01T21:36:09.0760000+00:00</time>
      </trkpt>
      <trkpt lat="48.26433" lon="10.529102">
        <ele>574.4</ele>
        <time>2026-09-01T21:36:59.7120000+00:00</time>
      </trkpt>
      <trkpt lat="48.265564" lon="10.528223">
        <ele>571.74</ele>
        <time>2026-09-01T21:39:21.9530000+00:00</time>
      </trkpt>
      <trkpt lat="48.265921" lon="10.528069">
        <ele>568.31</ele>
        <time>2026-09-01T21:40:00.6380000+00:00</time>
      </trkpt>
      <trkpt lat="48.265816" lon="10.527985">
        <ele>569.52</ele>
        <time>2026-09-01T21:40:13.0280000+00:00</time>
      </trkpt>
      <trkpt lat="48.265794" lon="10.528107">
        <ele>569.73</ele>
        <time>2026-09-01T21:40:21.7910000+00:00</time>
      </trkpt>
      <trkpt lat="48.265417" lon="10.528287">
        <ele>572.11</ele>
        <time>2026-09-01T21:41:02.9920000+00:00</time>
      </trkpt>
      <trkpt lat="48.264388" lon="10.529078">
        <ele>574.2</ele>
        <time>2026-09-01T21:43:03.3810000+00:00</time>
      </trkpt>
      <trkpt lat="48.263344" lon="10.528719">
        <ele>574.24</ele>
        <time>2026-09-01T21:44:54.9290000+00:00</time>
      </trkpt>
      <trkpt lat="48.263146" lon="10.528289">
        <ele>571.94</ele>
        <time>2026-09-01T21:45:31.1800000+00:00</time>
      </trkpt>
      <trkpt lat="48.263104" lon="10.527136">
        <ele>563.65</ele>
        <time>2026-09-01T21:46:51.2430000+00:00</time>
      </trkpt>
      <trkpt lat="48.262565" lon="10.525968">
        <ele>554.93</ele>
        <time>2026-09-01T21:48:29.7820000+00:00</time>
      </trkpt>
      <trkpt lat="48.262384" lon="10.525168">
        <ele>552.15</ele>
        <time>2026-09-01T21:49:28.3660000+00:00</time>
      </trkpt>
      <trkpt lat="48.262247" lon="10.525045">
        <ele>551.4</ele>
        <time>2026-09-01T21:49:44.9900000+00:00</time>
      </trkpt>
      <trkpt lat="48.2619" lon="10.525107">
        <ele>551.29</ele>
        <time>2026-09-01T21:50:21.3850000+00:00</time>
      </trkpt>
      <trkpt lat="48.261732" lon="10.524995">
        <ele>549.84</ele>
        <time>2026-09-01T21:50:40.5290000+00:00</time>
      </trkpt>
      <trkpt lat="48.261248" lon="10.523975">
        <ele>543.14</ele>
        <time>2026-09-01T21:52:07.3800000+00:00</time>
      </trkpt>
      <trkpt lat="48.26089" lon="10.522304">
        <ele>540.7</ele>
        <time>2026-09-01T21:54:09.0950000+00:00</time>
      </trkpt>
      <trkpt lat="48.260211" lon="10.52031">
        <ele>516.84</ele>
        <time>2026-09-01T21:56:44.3930000+00:00</time>
      </trkpt>
      <trkpt lat="48.260017" lon="10.519509">
        <ele>511.33</ele>
        <time>2026-09-01T21:57:43.4950000+00:00</time>
      </trkpt>
      <trkpt lat="48.26001" lon="10.518572">
        <ele>511.04</ele>
        <time>2026-09-01T21:58:48.4700000+00:00</time>
      </trkpt>
      <trkpt lat="48.26021" lon="10.517554">
        <ele>516.02</ele>
        <time>2026-09-01T22:00:02.0660000+00:00</time>
      </trkpt>
      <trkpt lat="48.260098" lon="10.517417">
        <ele>512.56</ele>
        <time>2026-09-01T22:00:17.1100000+00:00</time>
      </trkpt>
      <trkpt lat="48.259558" lon="10.51734">
        <ele>503.44</ele>
        <time>2026-09-01T22:01:13.6050000+00:00</time>
      </trkpt>
      <trkpt lat="48.259425" lon="10.516705">
        <ele>500.38</ele>
        <time>2026-09-01T22:01:59.7630000+00:00</time>
      </trkpt>
      <trkpt lat="48.259231" lon="10.516327">
        <ele>497.88</ele>
        <time>2026-09-01T22:02:32.8580000+00:00</time>
      </trkpt>
      <trkpt lat="48.259296" lon="10.514937">
        <ele>491.54</ele>
        <time>2026-09-01T22:04:09.4790000+00:00</time>
      </trkpt>
      <trkpt lat="48.259251" lon="10.51404">
        <ele>492.78</ele>
        <time>2026-09-01T22:05:11.8530000+00:00</time>
      </trkpt>
      <trkpt lat="48.259001" lon="10.512682999999999">
        <ele>496.8</ele>
        <time>2026-09-01T22:06:49.4850000+00:00</time>
      </trkpt>
      <trkpt lat="48.258443" lon="10.510771">
        <ele>502.83</ele>
        <time>2026-09-01T22:09:14.2430000+00:00</time>
      </trkpt>
      <trkpt lat="48.25842" lon="10.51034">
        <ele>503.97</ele>
        <time>2026-09-01T22:09:44.2250000+00:00</time>
      </trkpt>
      <trkpt lat="48.258408" lon="10.509254">
        <ele>508.87</ele>
        <time>2026-09-01T22:10:59.5410000+00:00</time>
      </trkpt>
      <trkpt lat="48.258851" lon="10.507276">
        <ele>522.76</ele>
        <time>2026-09-01T22:13:24.2500000+00:00</time>
      </trkpt>
      <trkpt lat="48.258818" lon="10.506423">
        <ele>517.3</ele>
        <time>2026-09-01T22:14:23.4980000+00:00</time>
      </trkpt>
      <trkpt lat="48.258347" lon="10.504282">
        <ele>514.81</ele>
        <time>2026-09-01T22:16:59.8520000+00:00</time>
      </trkpt>
      <trkpt lat="48.258123" lon="10.502542">
        <ele>518.9</ele>
        <time>2026-09-01T22:19:02.7420000+00:00</time>
      </trkpt>
      <trkpt lat="48.257869" lon="10.500891">
        <ele>522.43</ele>
        <time>2026-09-01T22:21:00.2420000+00:00</time>
      </trkpt>
      <trkpt lat="48.257383" lon="10.498436">
        <ele>524.39</ele>
        <time>2026-09-01T22:23:57.8440000+00:00</time>
      </trkpt>
      <trkpt lat="48.256591" lon="10.495507">
        <ele>530.11</ele>
        <time>2026-09-01T22:27:37.0630000+00:00</time>
      </trkpt>
      <trkpt lat="48.255787" lon="10.4933">
        <ele>535.8</ele>
        <time>2026-09-01T22:30:31.5180000+00:00</time>
      </trkpt>
      <trkpt lat="48.255652" lon="10.492416">
        <ele>538.18</ele>
        <time>2026-09-01T22:31:34.4110000+00:00</time>
      </trkpt>
      <trkpt lat="48.255073" lon="10.492588">
        <ele>536.61</ele>
        <time>2026-09-01T22:32:35.8830000+00:00</time>
      </trkpt>
      <trkpt lat="48.25419" lon="10.491873">
        <ele>527.77</ele>
        <time>2026-09-01T22:34:20.3640000+00:00</time>
      </trkpt>
      <trkpt lat="48.254089" lon="10.491704">
        <ele>525.54</ele>
        <time>2026-09-01T22:34:36.1120000+00:00</time>
      </trkpt>
      <trkpt lat="48.253992" lon="10.491278">
        <ele>520.68</ele>
        <time>2026-09-01T22:35:07.3340000+00:00</time>
      </trkpt>
      <trkpt lat="48.253882" lon="10.490455">
        <ele>515.61</ele>
        <time>2026-09-01T22:36:05.5460000+00:00</time>
      </trkpt>
      <trkpt lat="48.253916" lon="10.490304">
        <ele>515.28</ele>
        <time>2026-09-01T22:36:16.5990000+00:00</time>
      </trkpt>
      <trkpt lat="48.255382" lon="10.487485">
        <ele>524.02</ele>
        <time>2026-09-01T22:40:24.6490000+00:00</time>
      </trkpt>
      <trkpt lat="48.255751" lon="10.48695">
        <ele>524.8</ele>
        <time>2026-09-01T22:41:18.0670000+00:00</time>
      </trkpt>
      <trkpt lat="48.25567" lon="10.486618">
        <ele>519.54</ele>
        <time>2026-09-01T22:41:42.5870000+00:00</time>
      </trkpt>
      <trkpt lat="48.255618" lon="10.485863">
        <ele>510.68</ele>
        <time>2026-09-01T22:42:35.2220000+00:00</time>
      </trkpt>
      <trkpt lat="48.255749" lon="10.484439">
        <ele>503.87</ele>
        <time>2026-09-01T22:44:14.9070000+00:00</time>
      </trkpt>
      <trkpt lat="48.255768" lon="10.483744">
        <ele>503.98</ele>
        <time>2026-09-01T22:45:03.1430000+00:00</time>
      </trkpt>
      <trkpt lat="48.255582" lon="10.482482">
        <ele>503.02</ele>
        <time>2026-09-01T22:46:32.7750000+00:00</time>
      </trkpt>
      <trkpt lat="48.254408" lon="10.475374">
        <ele>502.61</ele>
        <time>2026-09-01T22:55:00.6270000+00:00</time>
      </trkpt>
      <trkpt lat="48.254087" lon="10.473509">
        <ele>503.89</ele>
        <time>2026-09-01T22:57:14.2110000+00:00</time>
      </trkpt>
      <trkpt lat="48.254049" lon="10.473211">
        <ele>503.96</ele>
        <time>2026-09-01T22:57:35.2520000+00:00</time>
      </trkpt>
      <trkpt lat="48.254072" lon="10.472697">
        <ele>504.25</ele>
        <time>2026-09-01T22:58:10.9770000+00:00</time>
      </trkpt>
      <trkpt lat="48.254716" lon="10.466924">
        <ele>503.09</ele>
        <time>2026-09-01T23:04:56.8970000+00:00</time>
      </trkpt>
      <trkpt lat="48.25518" lon="10.46255">
        <ele>505.49</ele>
        <time>2026-09-01T23:10:04.0430000+00:00</time>
      </trkpt>
      <trkpt lat="48.255721" lon="10.458354">
        <ele>505.37</ele>
        <time>2026-09-01T23:15:00.4220000+00:00</time>
      </trkpt>
      <trkpt lat="48.255801" lon="10.457483999999999">
        <ele>505.24</ele>
        <time>2026-09-01T23:16:01.3250000+00:00</time>
      </trkpt>
      <trkpt lat="48.25583" lon="10.456162">
        <ele>504.4</ele>
        <time>2026-09-01T23:17:33.0490000+00:00</time>
      </trkpt>
      <trkpt lat="48.255811" lon="10.455349">
        <ele>505.35</ele>
        <time>2026-09-01T23:18:29.4610000+00:00</time>
      </trkpt>
      <trkpt lat="48.25565" lon="10.454622">
        <ele>506.03</ele>
        <time>2026-09-01T23:19:22.5910000+00:00</time>
      </trkpt>
      <trkpt lat="48.25567" lon="10.454442">
        <ele>507.88</ele>
        <time>2026-09-01T23:19:35.2450000+00:00</time>
      </trkpt>
      <trkpt lat="48.255679" lon="10.45432">
        <ele>509.1</ele>
        <time>2026-09-01T23:19:43.7570000+00:00</time>
      </trkpt>
      <trkpt lat="48.255571" lon="10.454256">
        <ele>510.56</ele>
        <time>2026-09-01T23:19:55.8490000+00:00</time>
      </trkpt>
      <trkpt lat="48.254854" lon="10.454941">
        <ele>509.02</ele>
        <time>2026-09-01T23:21:24.3540000+00:00</time>
      </trkpt>
      <trkpt lat="48.254469" lon="10.455333">
        <ele>509.42</ele>
        <time>2026-09-01T23:22:12.7980000+00:00</time>
      </trkpt>
      <trkpt lat="48.254137" lon="10.455516">
        <ele>510.31</ele>
        <time>2026-09-01T23:22:49.6320000+00:00</time>
      </trkpt>
      <trkpt lat="48.252677" lon="10.455879">
        <ele>513.06</ele>
        <time>2026-09-01T23:25:23.7630000+00:00</time>
      </trkpt>
      <trkpt lat="48.251206" lon="10.456304">
        <ele>512.38</ele>
        <time>2026-09-01T23:27:59.7800000+00:00</time>
      </trkpt>
      <trkpt lat="48.250127" lon="10.456833">
        <ele>515.54</ele>
        <time>2026-09-01T23:29:57.9970000+00:00</time>
      </trkpt>
      <trkpt lat="48.249649" lon="10.457035">
        <ele>514.14</ele>
        <time>2026-09-01T23:30:49.7150000+00:00</time>
      </trkpt>
      <trkpt lat="48.249001" lon="10.457419">
        <ele>509.84</ele>
        <time>2026-09-01T23:32:02.2700000+00:00</time>
      </trkpt>
      <trkpt lat="48.248822" lon="10.457876">
        <ele>506.4</ele>
        <time>2026-09-01T23:32:39.0420000+00:00</time>
      </trkpt>
      <trkpt lat="48.248606" lon="10.458079">
        <ele>505.64</ele>
        <time>2026-09-01T23:33:05.5810000+00:00</time>
      </trkpt>
      <trkpt lat="48.247494" lon="10.457781">
        <ele>507.04</ele>
        <time>2026-09-01T23:35:03.2280000+00:00</time>
      </trkpt>
      <trkpt lat="48.246302" lon="10.45766">
        <ele>510.53</ele>
        <time>2026-09-01T23:37:07.6610000+00:00</time>
      </trkpt>
      <trkpt lat="48.245562" lon="10.45736">
        <ele>510.57</ele>
        <time>2026-09-01T23:38:27.4920000+00:00</time>
      </trkpt>
      <trkpt lat="48.24548" lon="10.457264">
        <ele>510.65</ele>
        <time>2026-09-01T23:38:38.3220000+00:00</time>
      </trkpt>
      <trkpt lat="48.245503" lon="10.456959">
        <ele>514.46</ele>
        <time>2026-09-01T23:38:59.6120000+00:00</time>
      </trkpt>
      <trkpt lat="48.245064" lon="10.456649">
        <ele>516.2</ele>
        <time>2026-09-01T23:39:50.1380000+00:00</time>
      </trkpt>
      <trkpt lat="48.243713" lon="10.455387">
        <ele>521.54</ele>
        <time>2026-09-01T23:42:35.8520000+00:00</time>
      </trkpt>
      <trkpt lat="48.242585" lon="10.454521">
        <ele>520.15</ele>
        <time>2026-09-01T23:44:47.8010000+00:00</time>
      </trkpt>
      <trkpt lat="48.241136" lon="10.453745">
        <ele>517.74</ele>
        <time>2026-09-01T23:47:28.0290000+00:00</time>
      </trkpt>
      <trkpt lat="48.240935" lon="10.453679">
        <ele>517.54</ele>
        <time>2026-09-01T23:47:49.4580000+00:00</time>
      </trkpt>
      <trkpt lat="48.240619" lon="10.453753">
        <ele>514.49</ele>
        <time>2026-09-01T23:48:22.7680000+00:00</time>
      </trkpt>
      <trkpt lat="48.240146" lon="10.453454">
        <ele>517.3</ele>
        <time>2026-09-01T23:49:16.2200000+00:00</time>
      </trkpt>
      <trkpt lat="48.238855" lon="10.452708">
        <ele>514.84</ele>
        <time>2026-09-01T23:51:40.2940000+00:00</time>
      </trkpt>
      <trkpt lat="48.238171" lon="10.452297">
        <ele>515.76</ele>
        <time>2026-09-01T23:52:57.0270000+00:00</time>
      </trkpt>
      <trkpt lat="48.237621" lon="10.451932">
        <ele>516.09</ele>
        <time>2026-09-01T23:53:59.6570000+00:00</time>
      </trkpt>
      <trkpt lat="48.237108" lon="10.451558">
        <ele>516.21</ele>
        <time>2026-09-01T23:54:59.0530000+00:00</time>
      </trkpt>
      <trkpt lat="48.236629" lon="10.451299">
        <ele>514.93</ele>
        <time>2026-09-01T23:55:52.0790000+00:00</time>
      </trkpt>
      <trkpt lat="48.236515" lon="10.451059">
        <ele>516.81</ele>
        <time>2026-09-01T23:56:12.5280000+00:00</time>
      </trkpt>
      <trkpt lat="48.235482" lon="10.450632">
        <ele>518.27</ele>
        <time>2026-09-01T23:58:04.1200000+00:00</time>
      </trkpt>
      <trkpt lat="48.234491" lon="10.449824">
        <ele>519.19</ele>
        <time>2026-09-02T00:00:01.5730000+00:00</time>
      </trkpt>
      <trkpt lat="48.233259" lon="10.44918">
        <ele>518.76</ele>
        <time>2026-09-02T00:02:17.4440000+00:00</time>
      </trkpt>
      <trkpt lat="48.2324" lon="10.448568">
        <ele>520.07</ele>
        <time>2026-09-02T00:03:56.4740000+00:00</time>
      </trkpt>
      <trkpt lat="48.231479" lon="10.447686">
        <ele>522.01</ele>
        <time>2026-09-02T00:05:50.2540000+00:00</time>
      </trkpt>
      <trkpt lat="48.230959" lon="10.446982">
        <ele>523.66</ele>
        <time>2026-09-02T00:07:03.1840000+00:00</time>
      </trkpt>
      <trkpt lat="48.230609" lon="10.446738">
        <ele>523.89</ele>
        <time>2026-09-02T00:07:43.3760000+00:00</time>
      </trkpt>
      <trkpt lat="48.23031" lon="10.446678">
        <ele>524.31</ele>
        <time>2026-09-02T00:08:14.7940000+00:00</time>
      </trkpt>
      <trkpt lat="48.230257" lon="10.446577">
        <ele>524.65</ele>
        <time>2026-09-02T00:08:23.7150000+00:00</time>
      </trkpt>
      <trkpt lat="48.230294" lon="10.446044">
        <ele>526.29</ele>
        <time>2026-09-02T00:09:00.8950000+00:00</time>
      </trkpt>
      <trkpt lat="48.230829" lon="10.445595">
        <ele>531.06</ele>
        <time>2026-09-02T00:10:04.7320000+00:00</time>
      </trkpt>
      <trkpt lat="48.230863" lon="10.445321">
        <ele>532.26</ele>
        <time>2026-09-02T00:10:24.0690000+00:00</time>
      </trkpt>
      <trkpt lat="48.230762" lon="10.444817">
        <ele>531.82</ele>
        <time>2026-09-02T00:11:00.5840000+00:00</time>
      </trkpt>
      <trkpt lat="48.230273" lon="10.444492">
        <ele>529.73</ele>
        <time>2026-09-02T00:11:56.2830000+00:00</time>
      </trkpt>
      <trkpt lat="48.230092" lon="10.443877">
        <ele>531.07</ele>
        <time>2026-09-02T00:12:42.9300000+00:00</time>
      </trkpt>
      <trkpt lat="48.230331" lon="10.440839">
        <ele>551.44</ele>
        <time>2026-09-02T00:16:15.1710000+00:00</time>
      </trkpt>
      <trkpt lat="48.229538" lon="10.43523">
        <ele>573.39</ele>
        <time>2026-09-02T00:22:52.9920000+00:00</time>
      </trkpt>
      <trkpt lat="48.229382" lon="10.434581">
        <ele>576.07</ele>
        <time>2026-09-02T00:23:40.8620000+00:00</time>
      </trkpt>
      <trkpt lat="48.229133" lon="10.43404">
        <ele>576.72</ele>
        <time>2026-09-02T00:24:26.4850000+00:00</time>
      </trkpt>
      <trkpt lat="48.228727" lon="10.433512">
        <ele>577</ele>
        <time>2026-09-02T00:25:22.4320000+00:00</time>
      </trkpt>
      <trkpt lat="48.228149" lon="10.432932">
        <ele>577.05</ele>
        <time>2026-09-02T00:26:34.8430000+00:00</time>
      </trkpt>
      <trkpt lat="48.227719" lon="10.432313">
        <ele>577.39</ele>
        <time>2026-09-02T00:27:36.8940000+00:00</time>
      </trkpt>
      <trkpt lat="48.227401" lon="10.431636">
        <ele>576.57</ele>
        <time>2026-09-02T00:28:34.3690000+00:00</time>
      </trkpt>
      <trkpt lat="48.22716" lon="10.430813">
        <ele>574.63</ele>
        <time>2026-09-02T00:29:36.7450000+00:00</time>
      </trkpt>
      <trkpt lat="48.226899" lon="10.428679">
        <ele>567.71</ele>
        <time>2026-09-02T00:32:07.2850000+00:00</time>
      </trkpt>
      <trkpt lat="48.226916" lon="10.427777">
        <ele>565.2</ele>
        <time>2026-09-02T00:33:09.8950000+00:00</time>
      </trkpt>
      <trkpt lat="48.227144" lon="10.424897">
        <ele>551.96</ele>
        <time>2026-09-02T00:36:31.1270000+00:00</time>
      </trkpt>
      <trkpt lat="48.227337" lon="10.423767">
        <ele>550.31</ele>
        <time>2026-09-02T00:37:52.0660000+00:00</time>
      </trkpt>
      <trkpt lat="48.227948" lon="10.421185">
        <ele>543.42</ele>
        <time>2026-09-02T00:41:02.1810000+00:00</time>
      </trkpt>
      <trkpt lat="48.228057" lon="10.420528">
        <ele>546.13</ele>
        <time>2026-09-02T00:41:49.1580000+00:00</time>
      </trkpt>
      <trkpt lat="48.228106" lon="10.419983">
        <ele>549.56</ele>
        <time>2026-09-02T00:42:27.3140000+00:00</time>
      </trkpt>
      <trkpt lat="48.228108" lon="10.419466">
        <ele>551.53</ele>
        <time>2026-09-02T00:43:03.1860000+00:00</time>
      </trkpt>
      <trkpt lat="48.228035" lon="10.418837">
        <ele>550.95</ele>
        <time>2026-09-02T00:43:47.4850000+00:00</time>
      </trkpt>
      <trkpt lat="48.227839" lon="10.418062">
        <ele>551.15</ele>
        <time>2026-09-02T00:44:45.0010000+00:00</time>
      </trkpt>
      <trkpt lat="48.226732" lon="10.414642">
        <ele>565.03</ele>
        <time>2026-09-02T00:49:08.8210000+00:00</time>
      </trkpt>
      <trkpt lat="48.226328" lon="10.412268">
        <ele>570.89</ele>
        <time>2026-09-02T00:51:58.8290000+00:00</time>
      </trkpt>
      <trkpt lat="48.226143" lon="10.410688">
        <ele>574.26</ele>
        <time>2026-09-02T00:53:50.1380000+00:00</time>
      </trkpt>
      <trkpt lat="48.225983" lon="10.407257">
        <ele>577.69</ele>
        <time>2026-09-02T00:57:48.7820000+00:00</time>
      </trkpt>
      <trkpt lat="48.225753" lon="10.405046">
        <ele>581.81</ele>
        <time>2026-09-02T01:00:24.0530000+00:00</time>
      </trkpt>
      <trkpt lat="48.225588" lon="10.402081">
        <ele>578.17</ele>
        <time>2026-09-02T01:03:50.4990000+00:00</time>
      </trkpt>
      <trkpt lat="48.225172" lon="10.397152">
        <ele>559.3</ele>
        <time>2026-09-02T01:09:35.2370000+00:00</time>
      </trkpt>
      <trkpt lat="48.225035" lon="10.395299">
        <ele>550.77</ele>
        <time>2026-09-02T01:11:44.6000000+00:00</time>
      </trkpt>
      <trkpt lat="48.225028" lon="10.393396">
        <ele>548.83</ele>
        <time>2026-09-02T01:13:56.6450000+00:00</time>
      </trkpt>
      <trkpt lat="48.225065" lon="10.391785">
        <ele>544.44</ele>
        <time>2026-09-02T01:15:48.4940000+00:00</time>
      </trkpt>
      <trkpt lat="48.225118" lon="10.390244">
        <ele>537.7</ele>
        <time>2026-09-02T01:17:35.5610000+00:00</time>
      </trkpt>
      <trkpt lat="48.225209" lon="10.388863">
        <ele>538.83</ele>
        <time>2026-09-02T01:19:11.8520000+00:00</time>
      </trkpt>
      <trkpt lat="48.225455" lon="10.386974">
        <ele>536.3</ele>
        <time>2026-09-02T01:21:25.4030000+00:00</time>
      </trkpt>
      <trkpt lat="48.225519" lon="10.386389">
        <ele>535.75</ele>
        <time>2026-09-02T01:22:06.5380000+00:00</time>
      </trkpt>
      <trkpt lat="48.225538" lon="10.385796">
        <ele>533.85</ele>
        <time>2026-09-02T01:22:47.7310000+00:00</time>
      </trkpt>
      <trkpt lat="48.225311" lon="10.383176">
        <ele>529.18</ele>
        <time>2026-09-02T01:25:51.0540000+00:00</time>
      </trkpt>
      <trkpt lat="48.225294" lon="10.381562">
        <ele>525.09</ele>
        <time>2026-09-02T01:27:43.0580000+00:00</time>
      </trkpt>
      <trkpt lat="48.225204" lon="10.380729">
        <ele>524.08</ele>
        <time>2026-09-02T01:28:41.6120000+00:00</time>
      </trkpt>
      <trkpt lat="48.225115" lon="10.380361">
        <ele>523.17</ele>
        <time>2026-09-02T01:29:08.7770000+00:00</time>
      </trkpt>
      <trkpt lat="48.225161" lon="10.380192">
        <ele>522.67</ele>
        <time>2026-09-02T01:29:21.4450000+00:00</time>
      </trkpt>
      <trkpt lat="48.226275" lon="10.380167">
        <ele>524.82</ele>
        <time>2026-09-02T01:31:17.4830000+00:00</time>
      </trkpt>
      <trkpt lat="48.227534" lon="10.380498">
        <ele>527.67</ele>
        <time>2026-09-02T01:33:30.6060000+00:00</time>
      </trkpt>
      <trkpt lat="48.228567" lon="10.381256">
        <ele>530.03</ele>
        <time>2026-09-02T01:35:30.3620000+00:00</time>
      </trkpt>
      <trkpt lat="48.230272" lon="10.380415">
        <ele>535.7</ele>
        <time>2026-09-02T01:38:37.2820000+00:00</time>
      </trkpt>
      <trkpt lat="48.230383" lon="10.380209">
        <ele>535.03</ele>
        <time>2026-09-02T01:38:55.6640000+00:00</time>
      </trkpt>
      <trkpt lat="48.23039" lon="10.379944">
        <ele>532.92</ele>
        <time>2026-09-02T01:39:14.0640000+00:00</time>
      </trkpt>
      <trkpt lat="48.229934" lon="10.376826">
        <ele>516.85</ele>
        <time>2026-09-02T01:42:55.5430000+00:00</time>
      </trkpt>
      <trkpt lat="48.229995" lon="10.376635">
        <ele>516.24</ele>
        <time>2026-09-02T01:43:10.2390000+00:00</time>
      </trkpt>
      <trkpt lat="48.230037" lon="10.376599">
        <ele>516.16</ele>
        <time>2026-09-02T01:43:15.2760000+00:00</time>
      </trkpt>
      <trkpt lat="48.230138" lon="10.376569">
        <ele>516.17</ele>
        <time>2026-09-02T01:43:25.9990000+00:00</time>
      </trkpt>
      <trkpt lat="48.23093" lon="10.376189">
        <ele>516.58</ele>
        <time>2026-09-02T01:44:52.5980000+00:00</time>
      </trkpt>
      <trkpt lat="48.231457" lon="10.375958">
        <ele>517.53</ele>
        <time>2026-09-02T01:45:49.7780000+00:00</time>
      </trkpt>
      <trkpt lat="48.231909" lon="10.375725">
        <ele>516.74</ele>
        <time>2026-09-02T01:46:39.5530000+00:00</time>
      </trkpt>
      <trkpt lat="48.232578" lon="10.375333">
        <ele>516.4</ele>
        <time>2026-09-02T01:47:54.3500000+00:00</time>
      </trkpt>
      <trkpt lat="48.233883" lon="10.374522">
        <ele>516.45</ele>
        <time>2026-09-02T01:50:21.4530000+00:00</time>
      </trkpt>
      <trkpt lat="48.234674" lon="10.373997">
        <ele>516.04</ele>
        <time>2026-09-02T01:51:51.5290000+00:00</time>
      </trkpt>
      <trkpt lat="48.235744" lon="10.373138">
        <ele>514.4</ele>
        <time>2026-09-02T01:53:57.9040000+00:00</time>
      </trkpt>
      <trkpt lat="48.236178" lon="10.372736">
        <ele>513.29</ele>
        <time>2026-09-02T01:54:51.0170000+00:00</time>
      </trkpt>
      <trkpt lat="48.237059" lon="10.372041">
        <ele>513.55</ele>
        <time>2026-09-02T01:56:34.6700000+00:00</time>
      </trkpt>
      <trkpt lat="48.237698" lon="10.371745">
        <ele>513.52</ele>
        <time>2026-09-02T01:57:44.3190000+00:00</time>
      </trkpt>
      <trkpt lat="48.238499" lon="10.371487">
        <ele>513.14</ele>
        <time>2026-09-02T01:59:09.6420000+00:00</time>
      </trkpt>
      <trkpt lat="48.239418" lon="10.371403">
        <ele>513.11</ele>
        <time>2026-09-02T02:00:45.5350000+00:00</time>
      </trkpt>
      <trkpt lat="48.239291" lon="10.371004">
        <ele>512.06</ele>
        <time>2026-09-02T02:01:16.2110000+00:00</time>
      </trkpt>
      <trkpt lat="48.238916" lon="10.36891">
        <ele>507.3</ele>
        <time>2026-09-02T02:03:46.6270000+00:00</time>
      </trkpt>
      <trkpt lat="48.238391" lon="10.367236">
        <ele>509.24</ele>
        <time>2026-09-02T02:05:54.9790000+00:00</time>
      </trkpt>
      <trkpt lat="48.239118" lon="10.366553">
        <ele>511.85</ele>
        <time>2026-09-02T02:07:24.2990000+00:00</time>
      </trkpt>
      <trkpt lat="48.239144" lon="10.366424">
        <ele>512.17</ele>
        <time>2026-09-02T02:07:33.6480000+00:00</time>
      </trkpt>
      <trkpt lat="48.238755" lon="10.364926">
        <ele>517.1</ele>
        <time>2026-09-02T02:09:25.1800000+00:00</time>
      </trkpt>
      <trkpt lat="48.23857" lon="10.364664">
        <ele>517.94</ele>
        <time>2026-09-02T02:09:51.6670000+00:00</time>
      </trkpt>
      <trkpt lat="48.23834" lon="10.363811">
        <ele>517.04</ele>
        <time>2026-09-02T02:10:55.5040000+00:00</time>
      </trkpt>
      <trkpt lat="48.238389" lon="10.363685">
        <ele>516.64</ele>
        <time>2026-09-02T02:11:05.6250000+00:00</time>
      </trkpt>
      <trkpt lat="48.238774" lon="10.36348">
        <ele>516.99</ele>
        <time>2026-09-02T02:11:48.1710000+00:00</time>
      </trkpt>
      <trkpt lat="48.2388" lon="10.363314">
        <ele>516.74</ele>
        <time>2026-09-02T02:12:00.0000000+00:00</time>
      </trkpt>
    </trkseg>
  </trk>
</gpx>